<?xml version="1.0" encoding="UTF-8" ?>
		<gpx
		 version="1.0"
		 xmlns:xsi="http://www.w3.org/2001/XMLSchema-instance"
		 xmlns="http://www.topografix.com/GPX/1/0"
		 xsi:schemaLocation="http://www.topografix.com/GPX/1/0 http://www.topografix.com/GPX/1/0/gpx.xsd"
		 creator="http://www.openrunner.com">
			<trk>
			    <name>--Mont-de-Marsan-- OR-1300498:60_06-SJDA-court</name>
			    <trkseg>
	
			<trkpt lat="43.89318" lon="-0.5146">
			 <ele>42</ele>
			<time>2015-12-28T18:16:46Z</time>
			</trkpt>
		
			<trkpt lat="43.89218" lon="-0.51485">
			 <ele>42</ele>
			<time>2015-12-28T18:18:46Z</time>
			</trkpt>
		
			<trkpt lat="43.89218" lon="-0.51485">
			 <ele>42</ele>
			<time>2015-12-28T18:20:46Z</time>
			</trkpt>
		
			<trkpt lat="43.89215" lon="-0.51461">
			 <ele>42</ele>
			<time>2015-12-28T18:22:46Z</time>
			</trkpt>
		
			<trkpt lat="43.89215" lon="-0.51461">
			 <ele>42</ele>
			<time>2015-12-28T18:24:46Z</time>
			</trkpt>
		
			<trkpt lat="43.89191" lon="-0.5133">
			 <ele>45</ele>
			<time>2015-12-28T18:26:46Z</time>
			</trkpt>
		
			<trkpt lat="43.89144" lon="-0.51136">
			 <ele>43</ele>
			<time>2015-12-28T18:28:46Z</time>
			</trkpt>
		
			<trkpt lat="43.89142" lon="-0.51087">
			 <ele>43</ele>
			<time>2015-12-28T18:30:46Z</time>
			</trkpt>
		
			<trkpt lat="43.89142" lon="-0.51087">
			 <ele>43</ele>
			<time>2015-12-28T18:32:46Z</time>
			</trkpt>
		
			<trkpt lat="43.89159" lon="-0.50975">
			 <ele>44</ele>
			<time>2015-12-28T18:34:46Z</time>
			</trkpt>
		
			<trkpt lat="43.89174" lon="-0.50907">
			 <ele>44</ele>
			<time>2015-12-28T18:36:46Z</time>
			</trkpt>
		
			<trkpt lat="43.89174" lon="-0.50907">
			 <ele>44</ele>
			<time>2015-12-28T18:38:46Z</time>
			</trkpt>
		
			<trkpt lat="43.89145" lon="-0.50805">
			 <ele>44</ele>
			<time>2015-12-28T18:40:46Z</time>
			</trkpt>
		
			<trkpt lat="43.89145" lon="-0.50805">
			 <ele>44</ele>
			<time>2015-12-28T18:42:46Z</time>
			</trkpt>
		
			<trkpt lat="43.89127" lon="-0.50741">
			 <ele>45</ele>
			<time>2015-12-28T18:44:46Z</time>
			</trkpt>
		
			<trkpt lat="43.89127" lon="-0.50741">
			 <ele>45</ele>
			<time>2015-12-28T18:46:46Z</time>
			</trkpt>
		
			<trkpt lat="43.89245" lon="-0.50675">
			 <ele>44</ele>
			<time>2015-12-28T18:48:46Z</time>
			</trkpt>
		
			<trkpt lat="43.89245" lon="-0.50675">
			 <ele>44</ele>
			<time>2015-12-28T18:50:46Z</time>
			</trkpt>
		
			<trkpt lat="43.89291" lon="-0.50655">
			 <ele>43</ele>
			<time>2015-12-28T18:52:46Z</time>
			</trkpt>
		
			<trkpt lat="43.89291" lon="-0.50655">
			 <ele>43</ele>
			<time>2015-12-28T18:54:46Z</time>
			</trkpt>
		
			<trkpt lat="43.89301" lon="-0.50535">
			 <ele>41</ele>
			<time>2015-12-28T18:56:46Z</time>
			</trkpt>
		
			<trkpt lat="43.89264" lon="-0.50427">
			 <ele>41</ele>
			<time>2015-12-28T18:58:46Z</time>
			</trkpt>
		
			<trkpt lat="43.89264" lon="-0.50427">
			 <ele>41</ele>
			<time>2015-12-28T19:00:46Z</time>
			</trkpt>
		
			<trkpt lat="43.89263" lon="-0.50401">
			 <ele>41</ele>
			<time>2015-12-28T19:02:46Z</time>
			</trkpt>
		
			<trkpt lat="43.89271" lon="-0.50354">
			 <ele>43</ele>
			<time>2015-12-28T19:04:46Z</time>
			</trkpt>
		
			<trkpt lat="43.89271" lon="-0.50354">
			 <ele>43</ele>
			<time>2015-12-28T19:06:46Z</time>
			</trkpt>
		
			<trkpt lat="43.89294" lon="-0.50238">
			 <ele>44</ele>
			<time>2015-12-28T19:08:46Z</time>
			</trkpt>
		
			<trkpt lat="43.89302" lon="-0.50165">
			 <ele>46</ele>
			<time>2015-12-28T19:10:46Z</time>
			</trkpt>
		
			<trkpt lat="43.89302" lon="-0.50165">
			 <ele>46</ele>
			<time>2015-12-28T19:12:46Z</time>
			</trkpt>
		
			<trkpt lat="43.8933" lon="-0.49874">
			 <ele>47</ele>
			<time>2015-12-28T19:14:46Z</time>
			</trkpt>
		
			<trkpt lat="43.89342" lon="-0.4969">
			 <ele>47</ele>
			<time>2015-12-28T19:16:46Z</time>
			</trkpt>
		
			<trkpt lat="43.89353" lon="-0.49642">
			 <ele>47</ele>
			<time>2015-12-28T19:18:46Z</time>
			</trkpt>
		
			<trkpt lat="43.8938" lon="-0.49581">
			 <ele>48</ele>
			<time>2015-12-28T19:20:46Z</time>
			</trkpt>
		
			<trkpt lat="43.89509" lon="-0.49337">
			 <ele>46</ele>
			<time>2015-12-28T19:22:46Z</time>
			</trkpt>
		
			<trkpt lat="43.89764" lon="-0.48877">
			 <ele>49</ele>
			<time>2015-12-28T19:24:46Z</time>
			</trkpt>
		
			<trkpt lat="43.89906" lon="-0.48606">
			 <ele>47</ele>
			<time>2015-12-28T19:26:46Z</time>
			</trkpt>
		
			<trkpt lat="43.90058" lon="-0.48336">
			 <ele>46</ele>
			<time>2015-12-28T19:28:46Z</time>
			</trkpt>
		
			<trkpt lat="43.90067" lon="-0.48314">
			 <ele>45</ele>
			<time>2015-12-28T19:30:46Z</time>
			</trkpt>
		
			<trkpt lat="43.90067" lon="-0.48298">
			 <ele>45</ele>
			<time>2015-12-28T19:32:46Z</time>
			</trkpt>
		
			<trkpt lat="43.90073" lon="-0.48291">
			 <ele>45</ele>
			<time>2015-12-28T19:34:46Z</time>
			</trkpt>
		
			<trkpt lat="43.90081" lon="-0.4829">
			 <ele>45</ele>
			<time>2015-12-28T19:36:46Z</time>
			</trkpt>
		
			<trkpt lat="43.90091" lon="-0.48274">
			 <ele>45</ele>
			<time>2015-12-28T19:38:46Z</time>
			</trkpt>
		
			<trkpt lat="43.90241" lon="-0.47994">
			 <ele>47</ele>
			<time>2015-12-28T19:40:46Z</time>
			</trkpt>
		
			<trkpt lat="43.9024" lon="-0.47979">
			 <ele>48</ele>
			<time>2015-12-28T19:42:46Z</time>
			</trkpt>
		
			<trkpt lat="43.90245" lon="-0.47971">
			 <ele>48</ele>
			<time>2015-12-28T19:44:46Z</time>
			</trkpt>
		
			<trkpt lat="43.90251" lon="-0.47972">
			 <ele>48</ele>
			<time>2015-12-28T19:46:46Z</time>
			</trkpt>
		
			<trkpt lat="43.90287" lon="-0.47903">
			 <ele>50</ele>
			<time>2015-12-28T19:48:46Z</time>
			</trkpt>
		
			<trkpt lat="43.90294" lon="-0.47899">
			 <ele>50</ele>
			<time>2015-12-28T19:50:46Z</time>
			</trkpt>
		
			<trkpt lat="43.90402" lon="-0.47703">
			 <ele>51</ele>
			<time>2015-12-28T19:52:46Z</time>
			</trkpt>
		
			<trkpt lat="43.90616" lon="-0.47303">
			 <ele>53</ele>
			<time>2015-12-28T19:54:46Z</time>
			</trkpt>
		
			<trkpt lat="43.91612" lon="-0.45485">
			 <ele>62</ele>
			<time>2015-12-28T19:56:46Z</time>
			</trkpt>
		
			<trkpt lat="43.91612" lon="-0.45485">
			 <ele>62</ele>
			<time>2015-12-28T19:58:46Z</time>
			</trkpt>
		
			<trkpt lat="43.91667" lon="-0.45385">
			 <ele>59</ele>
			<time>2015-12-28T20:00:46Z</time>
			</trkpt>
		
			<trkpt lat="43.91693" lon="-0.45319">
			 <ele>60</ele>
			<time>2015-12-28T20:02:46Z</time>
			</trkpt>
		
			<trkpt lat="43.91704" lon="-0.45268">
			 <ele>59</ele>
			<time>2015-12-28T20:04:46Z</time>
			</trkpt>
		
			<trkpt lat="43.91708" lon="-0.45229">
			 <ele>59</ele>
			<time>2015-12-28T20:06:46Z</time>
			</trkpt>
		
			<trkpt lat="43.91705" lon="-0.45203">
			 <ele>59</ele>
			<time>2015-12-28T20:08:46Z</time>
			</trkpt>
		
			<trkpt lat="43.91705" lon="-0.45203">
			 <ele>59</ele>
			<time>2015-12-28T20:10:46Z</time>
			</trkpt>
		
			<trkpt lat="43.91696" lon="-0.45194">
			 <ele>59</ele>
			<time>2015-12-28T20:12:46Z</time>
			</trkpt>
		
			<trkpt lat="43.91689" lon="-0.45173">
			 <ele>59</ele>
			<time>2015-12-28T20:14:46Z</time>
			</trkpt>
		
			<trkpt lat="43.91692" lon="-0.4514">
			 <ele>61</ele>
			<time>2015-12-28T20:16:46Z</time>
			</trkpt>
		
			<trkpt lat="43.91711" lon="-0.45119">
			 <ele>61</ele>
			<time>2015-12-28T20:18:46Z</time>
			</trkpt>
		
			<trkpt lat="43.91724" lon="-0.45087">
			 <ele>63</ele>
			<time>2015-12-28T20:20:46Z</time>
			</trkpt>
		
			<trkpt lat="43.91743" lon="-0.45062">
			 <ele>64</ele>
			<time>2015-12-28T20:22:46Z</time>
			</trkpt>
		
			<trkpt lat="43.91786" lon="-0.45033">
			 <ele>65</ele>
			<time>2015-12-28T20:24:46Z</time>
			</trkpt>
		
			<trkpt lat="43.91786" lon="-0.45033">
			 <ele>65</ele>
			<time>2015-12-28T20:26:46Z</time>
			</trkpt>
		
			<trkpt lat="43.91865" lon="-0.44969">
			 <ele>64</ele>
			<time>2015-12-28T20:28:46Z</time>
			</trkpt>
		
			<trkpt lat="43.91902" lon="-0.44922">
			 <ele>64</ele>
			<time>2015-12-28T20:30:46Z</time>
			</trkpt>
		
			<trkpt lat="43.92051" lon="-0.44656">
			 <ele>65</ele>
			<time>2015-12-28T20:32:46Z</time>
			</trkpt>
		
			<trkpt lat="43.92135" lon="-0.44495">
			 <ele>65</ele>
			<time>2015-12-28T20:34:46Z</time>
			</trkpt>
		
			<trkpt lat="43.92144" lon="-0.44464">
			 <ele>65</ele>
			<time>2015-12-28T20:36:46Z</time>
			</trkpt>
		
			<trkpt lat="43.92144" lon="-0.44412">
			 <ele>66</ele>
			<time>2015-12-28T20:38:46Z</time>
			</trkpt>
		
			<trkpt lat="43.92104" lon="-0.44072">
			 <ele>71</ele>
			<time>2015-12-28T20:40:46Z</time>
			</trkpt>
		
			<trkpt lat="43.92096" lon="-0.43858">
			 <ele>69</ele>
			<time>2015-12-28T20:42:46Z</time>
			</trkpt>
		
			<trkpt lat="43.92104" lon="-0.43813">
			 <ele>70</ele>
			<time>2015-12-28T20:44:46Z</time>
			</trkpt>
		
			<trkpt lat="43.92131" lon="-0.43741">
			 <ele>72</ele>
			<time>2015-12-28T20:46:46Z</time>
			</trkpt>
		
			<trkpt lat="43.92135" lon="-0.43694">
			 <ele>72</ele>
			<time>2015-12-28T20:48:46Z</time>
			</trkpt>
		
			<trkpt lat="43.92128" lon="-0.43641">
			 <ele>74</ele>
			<time>2015-12-28T20:50:46Z</time>
			</trkpt>
		
			<trkpt lat="43.92105" lon="-0.43551">
			 <ele>77</ele>
			<time>2015-12-28T20:52:46Z</time>
			</trkpt>
		
			<trkpt lat="43.92094" lon="-0.43349">
			 <ele>76</ele>
			<time>2015-12-28T20:54:46Z</time>
			</trkpt>
		
			<trkpt lat="43.92064" lon="-0.43092">
			 <ele>75</ele>
			<time>2015-12-28T20:56:46Z</time>
			</trkpt>
		
			<trkpt lat="43.92064" lon="-0.42994">
			 <ele>74</ele>
			<time>2015-12-28T20:58:46Z</time>
			</trkpt>
		
			<trkpt lat="43.92064" lon="-0.42994">
			 <ele>74</ele>
			<time>2015-12-28T21:00:46Z</time>
			</trkpt>
		
			<trkpt lat="43.92063" lon="-0.4294">
			 <ele>74</ele>
			<time>2015-12-28T21:02:46Z</time>
			</trkpt>
		
			<trkpt lat="43.92036" lon="-0.42759">
			 <ele>74</ele>
			<time>2015-12-28T21:04:46Z</time>
			</trkpt>
		
			<trkpt lat="43.92012" lon="-0.42556">
			 <ele>76</ele>
			<time>2015-12-28T21:06:46Z</time>
			</trkpt>
		
			<trkpt lat="43.92004" lon="-0.42441">
			 <ele>76</ele>
			<time>2015-12-28T21:08:46Z</time>
			</trkpt>
		
			<trkpt lat="43.92004" lon="-0.42441">
			 <ele>76</ele>
			<time>2015-12-28T21:10:46Z</time>
			</trkpt>
		
			<trkpt lat="43.91989" lon="-0.42224">
			 <ele>75</ele>
			<time>2015-12-28T21:12:46Z</time>
			</trkpt>
		
			<trkpt lat="43.91984" lon="-0.42176">
			 <ele>75</ele>
			<time>2015-12-28T21:14:46Z</time>
			</trkpt>
		
			<trkpt lat="43.91973" lon="-0.42122">
			 <ele>76</ele>
			<time>2015-12-28T21:16:46Z</time>
			</trkpt>
		
			<trkpt lat="43.91958" lon="-0.42085">
			 <ele>77</ele>
			<time>2015-12-28T21:18:46Z</time>
			</trkpt>
		
			<trkpt lat="43.91861" lon="-0.41912">
			 <ele>76</ele>
			<time>2015-12-28T21:20:46Z</time>
			</trkpt>
		
			<trkpt lat="43.91813" lon="-0.41813">
			 <ele>75</ele>
			<time>2015-12-28T21:22:46Z</time>
			</trkpt>
		
			<trkpt lat="43.91798" lon="-0.41775">
			 <ele>76</ele>
			<time>2015-12-28T21:24:46Z</time>
			</trkpt>
		
			<trkpt lat="43.91796" lon="-0.41757">
			 <ele>77</ele>
			<time>2015-12-28T21:26:46Z</time>
			</trkpt>
		
			<trkpt lat="43.918" lon="-0.41737">
			 <ele>77</ele>
			<time>2015-12-28T21:28:46Z</time>
			</trkpt>
		
			<trkpt lat="43.9182" lon="-0.41689">
			 <ele>77</ele>
			<time>2015-12-28T21:30:46Z</time>
			</trkpt>
		
			<trkpt lat="43.91912" lon="-0.41538">
			 <ele>77</ele>
			<time>2015-12-28T21:32:46Z</time>
			</trkpt>
		
			<trkpt lat="43.91941" lon="-0.41438">
			 <ele>78</ele>
			<time>2015-12-28T21:34:46Z</time>
			</trkpt>
		
			<trkpt lat="43.91945" lon="-0.41399">
			 <ele>78</ele>
			<time>2015-12-28T21:36:46Z</time>
			</trkpt>
		
			<trkpt lat="43.91928" lon="-0.41276">
			 <ele>83</ele>
			<time>2015-12-28T21:38:46Z</time>
			</trkpt>
		
			<trkpt lat="43.91925" lon="-0.41215">
			 <ele>85</ele>
			<time>2015-12-28T21:40:46Z</time>
			</trkpt>
		
			<trkpt lat="43.91943" lon="-0.41059">
			 <ele>87</ele>
			<time>2015-12-28T21:42:46Z</time>
			</trkpt>
		
			<trkpt lat="43.91958" lon="-0.41002">
			 <ele>87</ele>
			<time>2015-12-28T21:44:46Z</time>
			</trkpt>
		
			<trkpt lat="43.91957" lon="-0.40975">
			 <ele>87</ele>
			<time>2015-12-28T21:46:46Z</time>
			</trkpt>
		
			<trkpt lat="43.91941" lon="-0.40956">
			 <ele>86</ele>
			<time>2015-12-28T21:48:46Z</time>
			</trkpt>
		
			<trkpt lat="43.91874" lon="-0.4093">
			 <ele>88</ele>
			<time>2015-12-28T21:50:46Z</time>
			</trkpt>
		
			<trkpt lat="43.91844" lon="-0.40912">
			 <ele>89</ele>
			<time>2015-12-28T21:52:46Z</time>
			</trkpt>
		
			<trkpt lat="43.91752" lon="-0.40784">
			 <ele>87</ele>
			<time>2015-12-28T21:54:46Z</time>
			</trkpt>
		
			<trkpt lat="43.91689" lon="-0.40706">
			 <ele>81</ele>
			<time>2015-12-28T21:56:46Z</time>
			</trkpt>
		
			<trkpt lat="43.9163" lon="-0.40659">
			 <ele>78</ele>
			<time>2015-12-28T21:58:46Z</time>
			</trkpt>
		
			<trkpt lat="43.91598" lon="-0.40641">
			 <ele>77</ele>
			<time>2015-12-28T22:00:46Z</time>
			</trkpt>
		
			<trkpt lat="43.91475" lon="-0.40605">
			 <ele>77</ele>
			<time>2015-12-28T22:02:46Z</time>
			</trkpt>
		
			<trkpt lat="43.91428" lon="-0.40602">
			 <ele>78</ele>
			<time>2015-12-28T22:04:46Z</time>
			</trkpt>
		
			<trkpt lat="43.91314" lon="-0.40607">
			 <ele>82</ele>
			<time>2015-12-28T22:06:46Z</time>
			</trkpt>
		
			<trkpt lat="43.91299" lon="-0.40605">
			 <ele>82</ele>
			<time>2015-12-28T22:08:46Z</time>
			</trkpt>
		
			<trkpt lat="43.91261" lon="-0.40587">
			 <ele>83</ele>
			<time>2015-12-28T22:10:46Z</time>
			</trkpt>
		
			<trkpt lat="43.9124" lon="-0.40571">
			 <ele>82</ele>
			<time>2015-12-28T22:12:46Z</time>
			</trkpt>
		
			<trkpt lat="43.91219" lon="-0.40544">
			 <ele>80</ele>
			<time>2015-12-28T22:14:46Z</time>
			</trkpt>
		
			<trkpt lat="43.91175" lon="-0.40478">
			 <ele>77</ele>
			<time>2015-12-28T22:16:46Z</time>
			</trkpt>
		
			<trkpt lat="43.91149" lon="-0.4043">
			 <ele>77</ele>
			<time>2015-12-28T22:18:46Z</time>
			</trkpt>
		
			<trkpt lat="43.91082" lon="-0.40082">
			 <ele>73</ele>
			<time>2015-12-28T22:20:46Z</time>
			</trkpt>
		
			<trkpt lat="43.91057" lon="-0.40033">
			 <ele>73</ele>
			<time>2015-12-28T22:22:46Z</time>
			</trkpt>
		
			<trkpt lat="43.90932" lon="-0.39858">
			 <ele>70</ele>
			<time>2015-12-28T22:24:46Z</time>
			</trkpt>
		
			<trkpt lat="43.90917" lon="-0.39826">
			 <ele>70</ele>
			<time>2015-12-28T22:26:46Z</time>
			</trkpt>
		
			<trkpt lat="43.90914" lon="-0.39793">
			 <ele>70</ele>
			<time>2015-12-28T22:28:46Z</time>
			</trkpt>
		
			<trkpt lat="43.90949" lon="-0.39373">
			 <ele>75</ele>
			<time>2015-12-28T22:30:46Z</time>
			</trkpt>
		
			<trkpt lat="43.90938" lon="-0.3933">
			 <ele>75</ele>
			<time>2015-12-28T22:32:46Z</time>
			</trkpt>
		
			<trkpt lat="43.9081" lon="-0.39196">
			 <ele>68</ele>
			<time>2015-12-28T22:34:46Z</time>
			</trkpt>
		
			<trkpt lat="43.90794" lon="-0.3917">
			 <ele>68</ele>
			<time>2015-12-28T22:36:46Z</time>
			</trkpt>
		
			<trkpt lat="43.90783" lon="-0.39132">
			 <ele>70</ele>
			<time>2015-12-28T22:38:46Z</time>
			</trkpt>
		
			<trkpt lat="43.90709" lon="-0.38638">
			 <ele>71</ele>
			<time>2015-12-28T22:40:46Z</time>
			</trkpt>
		
			<trkpt lat="43.90712" lon="-0.38583">
			 <ele>71</ele>
			<time>2015-12-28T22:42:46Z</time>
			</trkpt>
		
			<trkpt lat="43.90742" lon="-0.38454">
			 <ele>70</ele>
			<time>2015-12-28T22:44:46Z</time>
			</trkpt>
		
			<trkpt lat="43.90731" lon="-0.3832">
			 <ele>69</ele>
			<time>2015-12-28T22:46:46Z</time>
			</trkpt>
		
			<trkpt lat="43.90731" lon="-0.3832">
			 <ele>69</ele>
			<time>2015-12-28T22:48:46Z</time>
			</trkpt>
		
			<trkpt lat="43.90724" lon="-0.38266">
			 <ele>68</ele>
			<time>2015-12-28T22:50:46Z</time>
			</trkpt>
		
			<trkpt lat="43.90724" lon="-0.38266">
			 <ele>68</ele>
			<time>2015-12-28T22:52:46Z</time>
			</trkpt>
		
			<trkpt lat="43.90798" lon="-0.38272">
			 <ele>69</ele>
			<time>2015-12-28T22:54:46Z</time>
			</trkpt>
		
			<trkpt lat="43.90798" lon="-0.38272">
			 <ele>69</ele>
			<time>2015-12-28T22:56:46Z</time>
			</trkpt>
		
			<trkpt lat="43.90928" lon="-0.38279">
			 <ele>72</ele>
			<time>2015-12-28T22:58:46Z</time>
			</trkpt>
		
			<trkpt lat="43.91003" lon="-0.38268">
			 <ele>73</ele>
			<time>2015-12-28T23:00:46Z</time>
			</trkpt>
		
			<trkpt lat="43.91152" lon="-0.3819">
			 <ele>72</ele>
			<time>2015-12-28T23:02:46Z</time>
			</trkpt>
		
			<trkpt lat="43.91519" lon="-0.38046">
			 <ele>83</ele>
			<time>2015-12-28T23:04:46Z</time>
			</trkpt>
		
			<trkpt lat="43.91529" lon="-0.38037">
			 <ele>82</ele>
			<time>2015-12-28T23:06:46Z</time>
			</trkpt>
		
			<trkpt lat="43.9155" lon="-0.38003">
			 <ele>82</ele>
			<time>2015-12-28T23:08:46Z</time>
			</trkpt>
		
			<trkpt lat="43.91571" lon="-0.37956">
			 <ele>81</ele>
			<time>2015-12-28T23:10:46Z</time>
			</trkpt>
		
			<trkpt lat="43.91631" lon="-0.37849">
			 <ele>83</ele>
			<time>2015-12-28T23:12:46Z</time>
			</trkpt>
		
			<trkpt lat="43.91657" lon="-0.3783">
			 <ele>84</ele>
			<time>2015-12-28T23:14:46Z</time>
			</trkpt>
		
			<trkpt lat="43.91684" lon="-0.37827">
			 <ele>83</ele>
			<time>2015-12-28T23:16:46Z</time>
			</trkpt>
		
			<trkpt lat="43.91715" lon="-0.37837">
			 <ele>80</ele>
			<time>2015-12-28T23:18:46Z</time>
			</trkpt>
		
			<trkpt lat="43.91835" lon="-0.3789">
			 <ele>77</ele>
			<time>2015-12-28T23:20:46Z</time>
			</trkpt>
		
			<trkpt lat="43.91879" lon="-0.37891">
			 <ele>80</ele>
			<time>2015-12-28T23:22:46Z</time>
			</trkpt>
		
			<trkpt lat="43.91895" lon="-0.37886">
			 <ele>81</ele>
			<time>2015-12-28T23:24:46Z</time>
			</trkpt>
		
			<trkpt lat="43.91987" lon="-0.37818">
			 <ele>83</ele>
			<time>2015-12-28T23:26:46Z</time>
			</trkpt>
		
			<trkpt lat="43.92227" lon="-0.37709">
			 <ele>82</ele>
			<time>2015-12-28T23:28:46Z</time>
			</trkpt>
		
			<trkpt lat="43.92244" lon="-0.37713">
			 <ele>82</ele>
			<time>2015-12-28T23:30:46Z</time>
			</trkpt>
		
			<trkpt lat="43.92294" lon="-0.378">
			 <ele>84</ele>
			<time>2015-12-28T23:32:46Z</time>
			</trkpt>
		
			<trkpt lat="43.92307" lon="-0.37812">
			 <ele>85</ele>
			<time>2015-12-28T23:34:46Z</time>
			</trkpt>
		
			<trkpt lat="43.92347" lon="-0.37818">
			 <ele>85</ele>
			<time>2015-12-28T23:36:46Z</time>
			</trkpt>
		
			<trkpt lat="43.92479" lon="-0.37823">
			 <ele>88</ele>
			<time>2015-12-28T23:38:46Z</time>
			</trkpt>
		
			<trkpt lat="43.92507" lon="-0.37813">
			 <ele>88</ele>
			<time>2015-12-28T23:40:46Z</time>
			</trkpt>
		
			<trkpt lat="43.92591" lon="-0.37757">
			 <ele>89</ele>
			<time>2015-12-28T23:42:46Z</time>
			</trkpt>
		
			<trkpt lat="43.92707" lon="-0.37646">
			 <ele>89</ele>
			<time>2015-12-28T23:44:46Z</time>
			</trkpt>
		
			<trkpt lat="43.92735" lon="-0.37634">
			 <ele>88</ele>
			<time>2015-12-28T23:46:46Z</time>
			</trkpt>
		
			<trkpt lat="43.9286" lon="-0.37602">
			 <ele>91</ele>
			<time>2015-12-28T23:48:46Z</time>
			</trkpt>
		
			<trkpt lat="43.9286" lon="-0.37602">
			 <ele>91</ele>
			<time>2015-12-28T23:50:46Z</time>
			</trkpt>
		
			<trkpt lat="43.93102" lon="-0.37496">
			 <ele>89</ele>
			<time>2015-12-28T23:52:46Z</time>
			</trkpt>
		
			<trkpt lat="43.93191" lon="-0.37462">
			 <ele>90</ele>
			<time>2015-12-28T23:54:46Z</time>
			</trkpt>
		
			<trkpt lat="43.9322" lon="-0.37466">
			 <ele>91</ele>
			<time>2015-12-28T23:56:46Z</time>
			</trkpt>
		
			<trkpt lat="43.93345" lon="-0.37517">
			 <ele>91</ele>
			<time>2015-12-28T23:58:46Z</time>
			</trkpt>
		
			<trkpt lat="43.93345" lon="-0.37517">
			 <ele>91</ele>
			<time>2015-12-29T00:00:46Z</time>
			</trkpt>
		
			<trkpt lat="43.93387" lon="-0.37532">
			 <ele>90</ele>
			<time>2015-12-29T00:02:46Z</time>
			</trkpt>
		
			<trkpt lat="43.93506" lon="-0.3771">
			 <ele>95</ele>
			<time>2015-12-29T00:04:46Z</time>
			</trkpt>
		
			<trkpt lat="43.93538" lon="-0.37718">
			 <ele>96</ele>
			<time>2015-12-29T00:06:46Z</time>
			</trkpt>
		
			<trkpt lat="43.93639" lon="-0.37699">
			 <ele>96</ele>
			<time>2015-12-29T00:08:46Z</time>
			</trkpt>
		
			<trkpt lat="43.93686" lon="-0.3767">
			 <ele>95</ele>
			<time>2015-12-29T00:10:46Z</time>
			</trkpt>
		
			<trkpt lat="43.93813" lon="-0.3756">
			 <ele>92</ele>
			<time>2015-12-29T00:12:46Z</time>
			</trkpt>
		
			<trkpt lat="43.93922" lon="-0.37448">
			 <ele>92</ele>
			<time>2015-12-29T00:14:46Z</time>
			</trkpt>
		
			<trkpt lat="43.94079" lon="-0.37327">
			 <ele>93</ele>
			<time>2015-12-29T00:16:46Z</time>
			</trkpt>
		
			<trkpt lat="43.94079" lon="-0.37327">
			 <ele>93</ele>
			<time>2015-12-29T00:18:46Z</time>
			</trkpt>
		
			<trkpt lat="43.94114" lon="-0.37301">
			 <ele>93</ele>
			<time>2015-12-29T00:20:46Z</time>
			</trkpt>
		
			<trkpt lat="43.94114" lon="-0.37301">
			 <ele>93</ele>
			<time>2015-12-29T00:22:46Z</time>
			</trkpt>
		
			<trkpt lat="43.94113" lon="-0.37276">
			 <ele>93</ele>
			<time>2015-12-29T00:24:46Z</time>
			</trkpt>
		
			<trkpt lat="43.94123" lon="-0.37212">
			 <ele>92</ele>
			<time>2015-12-29T00:26:46Z</time>
			</trkpt>
		
			<trkpt lat="43.94085" lon="-0.371">
			 <ele>92</ele>
			<time>2015-12-29T00:28:46Z</time>
			</trkpt>
		
			<trkpt lat="43.94085" lon="-0.371">
			 <ele>92</ele>
			<time>2015-12-29T00:30:46Z</time>
			</trkpt>
		
			<trkpt lat="43.93999" lon="-0.36803">
			 <ele>91</ele>
			<time>2015-12-29T00:32:46Z</time>
			</trkpt>
		
			<trkpt lat="43.93948" lon="-0.36581">
			 <ele>91</ele>
			<time>2015-12-29T00:34:46Z</time>
			</trkpt>
		
			<trkpt lat="43.93885" lon="-0.36374">
			 <ele>92</ele>
			<time>2015-12-29T00:36:46Z</time>
			</trkpt>
		
			<trkpt lat="43.93843" lon="-0.36274">
			 <ele>90</ele>
			<time>2015-12-29T00:38:46Z</time>
			</trkpt>
		
			<trkpt lat="43.93805" lon="-0.36119">
			 <ele>89</ele>
			<time>2015-12-29T00:40:46Z</time>
			</trkpt>
		
			<trkpt lat="43.93805" lon="-0.36119">
			 <ele>89</ele>
			<time>2015-12-29T00:42:46Z</time>
			</trkpt>
		
			<trkpt lat="43.93797" lon="-0.36083">
			 <ele>88</ele>
			<time>2015-12-29T00:44:46Z</time>
			</trkpt>
		
			<trkpt lat="43.93797" lon="-0.36083">
			 <ele>88</ele>
			<time>2015-12-29T00:46:46Z</time>
			</trkpt>
		
			<trkpt lat="43.93821" lon="-0.36038">
			 <ele>88</ele>
			<time>2015-12-29T00:48:46Z</time>
			</trkpt>
		
			<trkpt lat="43.93821" lon="-0.36038">
			 <ele>88</ele>
			<time>2015-12-29T00:50:46Z</time>
			</trkpt>
		
			<trkpt lat="43.93853" lon="-0.35984">
			 <ele>87</ele>
			<time>2015-12-29T00:52:46Z</time>
			</trkpt>
		
			<trkpt lat="43.93984" lon="-0.35802">
			 <ele>90</ele>
			<time>2015-12-29T00:54:46Z</time>
			</trkpt>
		
			<trkpt lat="43.9399" lon="-0.35785">
			 <ele>91</ele>
			<time>2015-12-29T00:56:46Z</time>
			</trkpt>
		
			<trkpt lat="43.93992" lon="-0.35751">
			 <ele>93</ele>
			<time>2015-12-29T00:58:46Z</time>
			</trkpt>
		
			<trkpt lat="43.93968" lon="-0.35556">
			 <ele>94</ele>
			<time>2015-12-29T01:00:46Z</time>
			</trkpt>
		
			<trkpt lat="43.93974" lon="-0.35505">
			 <ele>94</ele>
			<time>2015-12-29T01:02:46Z</time>
			</trkpt>
		
			<trkpt lat="43.94275" lon="-0.34692">
			 <ele>102</ele>
			<time>2015-12-29T01:04:46Z</time>
			</trkpt>
		
			<trkpt lat="43.94295" lon="-0.3463">
			 <ele>103</ele>
			<time>2015-12-29T01:06:46Z</time>
			</trkpt>
		
			<trkpt lat="43.94254" lon="-0.34412">
			 <ele>100</ele>
			<time>2015-12-29T01:08:46Z</time>
			</trkpt>
		
			<trkpt lat="43.94235" lon="-0.34355">
			 <ele>96</ele>
			<time>2015-12-29T01:10:46Z</time>
			</trkpt>
		
			<trkpt lat="43.94202" lon="-0.34292">
			 <ele>94</ele>
			<time>2015-12-29T01:12:46Z</time>
			</trkpt>
		
			<trkpt lat="43.94202" lon="-0.34292">
			 <ele>94</ele>
			<time>2015-12-29T01:14:46Z</time>
			</trkpt>
		
			<trkpt lat="43.94125" lon="-0.34134">
			 <ele>92</ele>
			<time>2015-12-29T01:16:46Z</time>
			</trkpt>
		
			<trkpt lat="43.93986" lon="-0.33721">
			 <ele>88</ele>
			<time>2015-12-29T01:18:46Z</time>
			</trkpt>
		
			<trkpt lat="43.93975" lon="-0.33677">
			 <ele>88</ele>
			<time>2015-12-29T01:20:46Z</time>
			</trkpt>
		
			<trkpt lat="43.9391" lon="-0.33597">
			 <ele>88</ele>
			<time>2015-12-29T01:22:46Z</time>
			</trkpt>
		
			<trkpt lat="43.93845" lon="-0.3346">
			 <ele>88</ele>
			<time>2015-12-29T01:24:46Z</time>
			</trkpt>
		
			<trkpt lat="43.93745" lon="-0.3334">
			 <ele>84</ele>
			<time>2015-12-29T01:26:46Z</time>
			</trkpt>
		
			<trkpt lat="43.93745" lon="-0.3334">
			 <ele>84</ele>
			<time>2015-12-29T01:28:46Z</time>
			</trkpt>
		
			<trkpt lat="43.93713" lon="-0.33311">
			 <ele>84</ele>
			<time>2015-12-29T01:30:46Z</time>
			</trkpt>
		
			<trkpt lat="43.93713" lon="-0.33311">
			 <ele>84</ele>
			<time>2015-12-29T01:32:46Z</time>
			</trkpt>
		
			<trkpt lat="43.93527" lon="-0.33168">
			 <ele>84</ele>
			<time>2015-12-29T01:34:46Z</time>
			</trkpt>
		
			<trkpt lat="43.93527" lon="-0.33168">
			 <ele>84</ele>
			<time>2015-12-29T01:36:46Z</time>
			</trkpt>
		
			<trkpt lat="43.93333" lon="-0.3302">
			 <ele>84</ele>
			<time>2015-12-29T01:38:46Z</time>
			</trkpt>
		
			<trkpt lat="43.93308" lon="-0.33008">
			 <ele>84</ele>
			<time>2015-12-29T01:40:46Z</time>
			</trkpt>
		
			<trkpt lat="43.93291" lon="-0.33008">
			 <ele>83</ele>
			<time>2015-12-29T01:42:46Z</time>
			</trkpt>
		
			<trkpt lat="43.93276" lon="-0.33014">
			 <ele>83</ele>
			<time>2015-12-29T01:44:46Z</time>
			</trkpt>
		
			<trkpt lat="43.93261" lon="-0.3303">
			 <ele>82</ele>
			<time>2015-12-29T01:46:46Z</time>
			</trkpt>
		
			<trkpt lat="43.93162" lon="-0.3318">
			 <ele>81</ele>
			<time>2015-12-29T01:48:46Z</time>
			</trkpt>
		
			<trkpt lat="43.93124" lon="-0.33231">
			 <ele>81</ele>
			<time>2015-12-29T01:50:46Z</time>
			</trkpt>
		
			<trkpt lat="43.93124" lon="-0.33231">
			 <ele>81</ele>
			<time>2015-12-29T01:52:46Z</time>
			</trkpt>
		
			<trkpt lat="43.93111" lon="-0.33251">
			 <ele>81</ele>
			<time>2015-12-29T01:54:46Z</time>
			</trkpt>
		
			<trkpt lat="43.93101" lon="-0.33279">
			 <ele>81</ele>
			<time>2015-12-29T01:56:46Z</time>
			</trkpt>
		
			<trkpt lat="43.93101" lon="-0.33279">
			 <ele>81</ele>
			<time>2015-12-29T01:58:46Z</time>
			</trkpt>
		
			<trkpt lat="43.93048" lon="-0.33272">
			 <ele>81</ele>
			<time>2015-12-29T02:00:46Z</time>
			</trkpt>
		
			<trkpt lat="43.93048" lon="-0.33272">
			 <ele>81</ele>
			<time>2015-12-29T02:02:46Z</time>
			</trkpt>
		
			<trkpt lat="43.93022" lon="-0.33269">
			 <ele>82</ele>
			<time>2015-12-29T02:04:46Z</time>
			</trkpt>
		
			<trkpt lat="43.9301" lon="-0.3326">
			 <ele>83</ele>
			<time>2015-12-29T02:06:46Z</time>
			</trkpt>
		
			<trkpt lat="43.92999" lon="-0.33239">
			 <ele>83</ele>
			<time>2015-12-29T02:08:46Z</time>
			</trkpt>
		
			<trkpt lat="43.92987" lon="-0.33184">
			 <ele>85</ele>
			<time>2015-12-29T02:10:46Z</time>
			</trkpt>
		
			<trkpt lat="43.92975" lon="-0.33154">
			 <ele>86</ele>
			<time>2015-12-29T02:12:46Z</time>
			</trkpt>
		
			<trkpt lat="43.92914" lon="-0.33062">
			 <ele>92</ele>
			<time>2015-12-29T02:14:46Z</time>
			</trkpt>
		
			<trkpt lat="43.92893" lon="-0.33037">
			 <ele>91</ele>
			<time>2015-12-29T02:16:46Z</time>
			</trkpt>
		
			<trkpt lat="43.92879" lon="-0.33024">
			 <ele>90</ele>
			<time>2015-12-29T02:18:46Z</time>
			</trkpt>
		
			<trkpt lat="43.92855" lon="-0.33014">
			 <ele>90</ele>
			<time>2015-12-29T02:20:46Z</time>
			</trkpt>
		
			<trkpt lat="43.92855" lon="-0.33014">
			 <ele>90</ele>
			<time>2015-12-29T02:22:46Z</time>
			</trkpt>
		
			<trkpt lat="43.92812" lon="-0.33016">
			 <ele>89</ele>
			<time>2015-12-29T02:24:46Z</time>
			</trkpt>
		
			<trkpt lat="43.928" lon="-0.33012">
			 <ele>89</ele>
			<time>2015-12-29T02:26:46Z</time>
			</trkpt>
		
			<trkpt lat="43.92793" lon="-0.33004">
			 <ele>89</ele>
			<time>2015-12-29T02:28:46Z</time>
			</trkpt>
		
			<trkpt lat="43.92793" lon="-0.33004">
			 <ele>89</ele>
			<time>2015-12-29T02:30:46Z</time>
			</trkpt>
		
			<trkpt lat="43.92798" lon="-0.3304">
			 <ele>90</ele>
			<time>2015-12-29T02:32:46Z</time>
			</trkpt>
		
			<trkpt lat="43.92795" lon="-0.33067">
			 <ele>90</ele>
			<time>2015-12-29T02:34:46Z</time>
			</trkpt>
		
			<trkpt lat="43.92779" lon="-0.33097">
			 <ele>90</ele>
			<time>2015-12-29T02:36:46Z</time>
			</trkpt>
		
			<trkpt lat="43.92764" lon="-0.33111">
			 <ele>89</ele>
			<time>2015-12-29T02:38:46Z</time>
			</trkpt>
		
			<trkpt lat="43.92764" lon="-0.33111">
			 <ele>89</ele>
			<time>2015-12-29T02:40:46Z</time>
			</trkpt>
		
			<trkpt lat="43.9273" lon="-0.33136">
			 <ele>89</ele>
			<time>2015-12-29T02:42:46Z</time>
			</trkpt>
		
			<trkpt lat="43.92611" lon="-0.33202">
			 <ele>87</ele>
			<time>2015-12-29T02:44:46Z</time>
			</trkpt>
		
			<trkpt lat="43.92418" lon="-0.33271">
			 <ele>85</ele>
			<time>2015-12-29T02:46:46Z</time>
			</trkpt>
		
			<trkpt lat="43.92365" lon="-0.33303">
			 <ele>84</ele>
			<time>2015-12-29T02:48:46Z</time>
			</trkpt>
		
			<trkpt lat="43.92207" lon="-0.33467">
			 <ele>78</ele>
			<time>2015-12-29T02:50:46Z</time>
			</trkpt>
		
			<trkpt lat="43.92174" lon="-0.3353">
			 <ele>77</ele>
			<time>2015-12-29T02:52:46Z</time>
			</trkpt>
		
			<trkpt lat="43.92174" lon="-0.3353">
			 <ele>77</ele>
			<time>2015-12-29T02:54:46Z</time>
			</trkpt>
		
			<trkpt lat="43.92128" lon="-0.3356">
			 <ele>80</ele>
			<time>2015-12-29T02:56:46Z</time>
			</trkpt>
		
			<trkpt lat="43.92122" lon="-0.33581">
			 <ele>81</ele>
			<time>2015-12-29T02:58:46Z</time>
			</trkpt>
		
			<trkpt lat="43.92129" lon="-0.33605">
			 <ele>81</ele>
			<time>2015-12-29T03:00:46Z</time>
			</trkpt>
		
			<trkpt lat="43.92179" lon="-0.33671">
			 <ele>82</ele>
			<time>2015-12-29T03:02:46Z</time>
			</trkpt>
		
			<trkpt lat="43.9218" lon="-0.33699">
			 <ele>82</ele>
			<time>2015-12-29T03:04:46Z</time>
			</trkpt>
		
			<trkpt lat="43.92165" lon="-0.33738">
			 <ele>84</ele>
			<time>2015-12-29T03:06:46Z</time>
			</trkpt>
		
			<trkpt lat="43.92143" lon="-0.3377">
			 <ele>84</ele>
			<time>2015-12-29T03:08:46Z</time>
			</trkpt>
		
			<trkpt lat="43.92089" lon="-0.33813">
			 <ele>85</ele>
			<time>2015-12-29T03:10:46Z</time>
			</trkpt>
		
			<trkpt lat="43.92069" lon="-0.33838">
			 <ele>85</ele>
			<time>2015-12-29T03:12:46Z</time>
			</trkpt>
		
			<trkpt lat="43.92056" lon="-0.33994">
			 <ele>81</ele>
			<time>2015-12-29T03:14:46Z</time>
			</trkpt>
		
			<trkpt lat="43.92039" lon="-0.34122">
			 <ele>81</ele>
			<time>2015-12-29T03:16:46Z</time>
			</trkpt>
		
			<trkpt lat="43.92027" lon="-0.34178">
			 <ele>80</ele>
			<time>2015-12-29T03:18:46Z</time>
			</trkpt>
		
			<trkpt lat="43.92009" lon="-0.34236">
			 <ele>79</ele>
			<time>2015-12-29T03:20:46Z</time>
			</trkpt>
		
			<trkpt lat="43.91998" lon="-0.34262">
			 <ele>80</ele>
			<time>2015-12-29T03:22:46Z</time>
			</trkpt>
		
			<trkpt lat="43.91952" lon="-0.34314">
			 <ele>83</ele>
			<time>2015-12-29T03:24:46Z</time>
			</trkpt>
		
			<trkpt lat="43.91922" lon="-0.34358">
			 <ele>85</ele>
			<time>2015-12-29T03:26:46Z</time>
			</trkpt>
		
			<trkpt lat="43.91871" lon="-0.34499">
			 <ele>87</ele>
			<time>2015-12-29T03:28:46Z</time>
			</trkpt>
		
			<trkpt lat="43.91842" lon="-0.34525">
			 <ele>88</ele>
			<time>2015-12-29T03:30:46Z</time>
			</trkpt>
		
			<trkpt lat="43.91842" lon="-0.34525">
			 <ele>88</ele>
			<time>2015-12-29T03:32:46Z</time>
			</trkpt>
		
			<trkpt lat="43.91805" lon="-0.34549">
			 <ele>88</ele>
			<time>2015-12-29T03:34:46Z</time>
			</trkpt>
		
			<trkpt lat="43.91736" lon="-0.34607">
			 <ele>87</ele>
			<time>2015-12-29T03:36:46Z</time>
			</trkpt>
		
			<trkpt lat="43.91684" lon="-0.34641">
			 <ele>87</ele>
			<time>2015-12-29T03:38:46Z</time>
			</trkpt>
		
			<trkpt lat="43.91506" lon="-0.34685">
			 <ele>83</ele>
			<time>2015-12-29T03:40:46Z</time>
			</trkpt>
		
			<trkpt lat="43.91378" lon="-0.34729">
			 <ele>82</ele>
			<time>2015-12-29T03:42:46Z</time>
			</trkpt>
		
			<trkpt lat="43.91339" lon="-0.34733">
			 <ele>84</ele>
			<time>2015-12-29T03:44:46Z</time>
			</trkpt>
		
			<trkpt lat="43.91205" lon="-0.34647">
			 <ele>85</ele>
			<time>2015-12-29T03:46:46Z</time>
			</trkpt>
		
			<trkpt lat="43.91007" lon="-0.34506">
			 <ele>84</ele>
			<time>2015-12-29T03:48:46Z</time>
			</trkpt>
		
			<trkpt lat="43.9092" lon="-0.34436">
			 <ele>81</ele>
			<time>2015-12-29T03:50:46Z</time>
			</trkpt>
		
			<trkpt lat="43.90873" lon="-0.34391">
			 <ele>81</ele>
			<time>2015-12-29T03:52:46Z</time>
			</trkpt>
		
			<trkpt lat="43.90828" lon="-0.3436">
			 <ele>83</ele>
			<time>2015-12-29T03:54:46Z</time>
			</trkpt>
		
			<trkpt lat="43.90746" lon="-0.34319">
			 <ele>82</ele>
			<time>2015-12-29T03:56:46Z</time>
			</trkpt>
		
			<trkpt lat="43.90704" lon="-0.34291">
			 <ele>83</ele>
			<time>2015-12-29T03:58:46Z</time>
			</trkpt>
		
			<trkpt lat="43.90628" lon="-0.34195">
			 <ele>81</ele>
			<time>2015-12-29T04:00:46Z</time>
			</trkpt>
		
			<trkpt lat="43.90628" lon="-0.34195">
			 <ele>81</ele>
			<time>2015-12-29T04:02:46Z</time>
			</trkpt>
		
			<trkpt lat="43.90613" lon="-0.34178">
			 <ele>81</ele>
			<time>2015-12-29T04:04:46Z</time>
			</trkpt>
		
			<trkpt lat="43.90585" lon="-0.34166">
			 <ele>81</ele>
			<time>2015-12-29T04:06:46Z</time>
			</trkpt>
		
			<trkpt lat="43.90585" lon="-0.34166">
			 <ele>81</ele>
			<time>2015-12-29T04:08:46Z</time>
			</trkpt>
		
			<trkpt lat="43.90582" lon="-0.34183">
			 <ele>81</ele>
			<time>2015-12-29T04:10:46Z</time>
			</trkpt>
		
			<trkpt lat="43.90569" lon="-0.34204">
			 <ele>81</ele>
			<time>2015-12-29T04:12:46Z</time>
			</trkpt>
		
			<trkpt lat="43.90555" lon="-0.34215">
			 <ele>81</ele>
			<time>2015-12-29T04:14:46Z</time>
			</trkpt>
		
			<trkpt lat="43.90532" lon="-0.34223">
			 <ele>81</ele>
			<time>2015-12-29T04:16:46Z</time>
			</trkpt>
		
			<trkpt lat="43.90532" lon="-0.34223">
			 <ele>81</ele>
			<time>2015-12-29T04:18:46Z</time>
			</trkpt>
		
			<trkpt lat="43.90514" lon="-0.34234">
			 <ele>81</ele>
			<time>2015-12-29T04:20:46Z</time>
			</trkpt>
		
			<trkpt lat="43.90476" lon="-0.34274">
			 <ele>81</ele>
			<time>2015-12-29T04:22:46Z</time>
			</trkpt>
		
			<trkpt lat="43.90439" lon="-0.34289">
			 <ele>79</ele>
			<time>2015-12-29T04:24:46Z</time>
			</trkpt>
		
			<trkpt lat="43.90347" lon="-0.34277">
			 <ele>77</ele>
			<time>2015-12-29T04:26:46Z</time>
			</trkpt>
		
			<trkpt lat="43.9022" lon="-0.34252">
			 <ele>76</ele>
			<time>2015-12-29T04:28:46Z</time>
			</trkpt>
		
			<trkpt lat="43.90135" lon="-0.34279">
			 <ele>76</ele>
			<time>2015-12-29T04:30:46Z</time>
			</trkpt>
		
			<trkpt lat="43.89991" lon="-0.34309">
			 <ele>75</ele>
			<time>2015-12-29T04:32:46Z</time>
			</trkpt>
		
			<trkpt lat="43.89953" lon="-0.34332">
			 <ele>76</ele>
			<time>2015-12-29T04:34:46Z</time>
			</trkpt>
		
			<trkpt lat="43.89904" lon="-0.34396">
			 <ele>77</ele>
			<time>2015-12-29T04:36:46Z</time>
			</trkpt>
		
			<trkpt lat="43.89864" lon="-0.34434">
			 <ele>76</ele>
			<time>2015-12-29T04:38:46Z</time>
			</trkpt>
		
			<trkpt lat="43.89852" lon="-0.34457">
			 <ele>75</ele>
			<time>2015-12-29T04:40:46Z</time>
			</trkpt>
		
			<trkpt lat="43.89848" lon="-0.34487">
			 <ele>74</ele>
			<time>2015-12-29T04:42:46Z</time>
			</trkpt>
		
			<trkpt lat="43.89861" lon="-0.34609">
			 <ele>75</ele>
			<time>2015-12-29T04:44:46Z</time>
			</trkpt>
		
			<trkpt lat="43.89854" lon="-0.34636">
			 <ele>76</ele>
			<time>2015-12-29T04:46:46Z</time>
			</trkpt>
		
			<trkpt lat="43.89755" lon="-0.34782">
			 <ele>77</ele>
			<time>2015-12-29T04:48:46Z</time>
			</trkpt>
		
			<trkpt lat="43.89689" lon="-0.34846">
			 <ele>72</ele>
			<time>2015-12-29T04:50:46Z</time>
			</trkpt>
		
			<trkpt lat="43.89596" lon="-0.34965">
			 <ele>66</ele>
			<time>2015-12-29T04:52:46Z</time>
			</trkpt>
		
			<trkpt lat="43.89586" lon="-0.35">
			 <ele>66</ele>
			<time>2015-12-29T04:54:46Z</time>
			</trkpt>
		
			<trkpt lat="43.89579" lon="-0.35109">
			 <ele>64</ele>
			<time>2015-12-29T04:56:46Z</time>
			</trkpt>
		
			<trkpt lat="43.89575" lon="-0.35127">
			 <ele>63</ele>
			<time>2015-12-29T04:58:46Z</time>
			</trkpt>
		
			<trkpt lat="43.89553" lon="-0.35187">
			 <ele>60</ele>
			<time>2015-12-29T05:00:46Z</time>
			</trkpt>
		
			<trkpt lat="43.89528" lon="-0.35232">
			 <ele>56</ele>
			<time>2015-12-29T05:02:46Z</time>
			</trkpt>
		
			<trkpt lat="43.89528" lon="-0.35232">
			 <ele>56</ele>
			<time>2015-12-29T05:04:46Z</time>
			</trkpt>
		
			<trkpt lat="43.89497" lon="-0.35291">
			 <ele>55</ele>
			<time>2015-12-29T05:06:46Z</time>
			</trkpt>
		
			<trkpt lat="43.8946" lon="-0.3531">
			 <ele>54</ele>
			<time>2015-12-29T05:08:46Z</time>
			</trkpt>
		
			<trkpt lat="43.89432" lon="-0.35311">
			 <ele>53</ele>
			<time>2015-12-29T05:10:46Z</time>
			</trkpt>
		
			<trkpt lat="43.89374" lon="-0.35282">
			 <ele>51</ele>
			<time>2015-12-29T05:12:46Z</time>
			</trkpt>
		
			<trkpt lat="43.89374" lon="-0.35282">
			 <ele>51</ele>
			<time>2015-12-29T05:14:46Z</time>
			</trkpt>
		
			<trkpt lat="43.8935" lon="-0.35271">
			 <ele>51</ele>
			<time>2015-12-29T05:16:46Z</time>
			</trkpt>
		
			<trkpt lat="43.89325" lon="-0.3527">
			 <ele>51</ele>
			<time>2015-12-29T05:18:46Z</time>
			</trkpt>
		
			<trkpt lat="43.89261" lon="-0.35318">
			 <ele>53</ele>
			<time>2015-12-29T05:20:46Z</time>
			</trkpt>
		
			<trkpt lat="43.89237" lon="-0.35326">
			 <ele>55</ele>
			<time>2015-12-29T05:22:46Z</time>
			</trkpt>
		
			<trkpt lat="43.8921" lon="-0.35323">
			 <ele>57</ele>
			<time>2015-12-29T05:24:46Z</time>
			</trkpt>
		
			<trkpt lat="43.8916" lon="-0.35298">
			 <ele>59</ele>
			<time>2015-12-29T05:26:46Z</time>
			</trkpt>
		
			<trkpt lat="43.8916" lon="-0.35298">
			 <ele>59</ele>
			<time>2015-12-29T05:28:46Z</time>
			</trkpt>
		
			<trkpt lat="43.89086" lon="-0.35294">
			 <ele>65</ele>
			<time>2015-12-29T05:30:46Z</time>
			</trkpt>
		
			<trkpt lat="43.89036" lon="-0.35225">
			 <ele>71</ele>
			<time>2015-12-29T05:32:46Z</time>
			</trkpt>
		
			<trkpt lat="43.89018" lon="-0.35195">
			 <ele>73</ele>
			<time>2015-12-29T05:34:46Z</time>
			</trkpt>
		
			<trkpt lat="43.89001" lon="-0.35155">
			 <ele>75</ele>
			<time>2015-12-29T05:36:46Z</time>
			</trkpt>
		
			<trkpt lat="43.88959" lon="-0.34963">
			 <ele>73</ele>
			<time>2015-12-29T05:38:46Z</time>
			</trkpt>
		
			<trkpt lat="43.88941" lon="-0.34938">
			 <ele>73</ele>
			<time>2015-12-29T05:40:46Z</time>
			</trkpt>
		
			<trkpt lat="43.88904" lon="-0.34913">
			 <ele>76</ele>
			<time>2015-12-29T05:42:46Z</time>
			</trkpt>
		
			<trkpt lat="43.88872" lon="-0.34909">
			 <ele>79</ele>
			<time>2015-12-29T05:44:46Z</time>
			</trkpt>
		
			<trkpt lat="43.88843" lon="-0.34915">
			 <ele>80</ele>
			<time>2015-12-29T05:46:46Z</time>
			</trkpt>
		
			<trkpt lat="43.888" lon="-0.34933">
			 <ele>85</ele>
			<time>2015-12-29T05:48:46Z</time>
			</trkpt>
		
			<trkpt lat="43.88702" lon="-0.3499">
			 <ele>89</ele>
			<time>2015-12-29T05:50:46Z</time>
			</trkpt>
		
			<trkpt lat="43.88606" lon="-0.35038">
			 <ele>86</ele>
			<time>2015-12-29T05:52:46Z</time>
			</trkpt>
		
			<trkpt lat="43.88581" lon="-0.35046">
			 <ele>85</ele>
			<time>2015-12-29T05:54:46Z</time>
			</trkpt>
		
			<trkpt lat="43.88557" lon="-0.35047">
			 <ele>84</ele>
			<time>2015-12-29T05:56:46Z</time>
			</trkpt>
		
			<trkpt lat="43.8848" lon="-0.35045">
			 <ele>82</ele>
			<time>2015-12-29T05:58:46Z</time>
			</trkpt>
		
			<trkpt lat="43.88457" lon="-0.35039">
			 <ele>81</ele>
			<time>2015-12-29T06:00:46Z</time>
			</trkpt>
		
			<trkpt lat="43.88444" lon="-0.35032">
			 <ele>81</ele>
			<time>2015-12-29T06:02:46Z</time>
			</trkpt>
		
			<trkpt lat="43.8841" lon="-0.34992">
			 <ele>80</ele>
			<time>2015-12-29T06:04:46Z</time>
			</trkpt>
		
			<trkpt lat="43.88397" lon="-0.34983">
			 <ele>79</ele>
			<time>2015-12-29T06:06:46Z</time>
			</trkpt>
		
			<trkpt lat="43.88238" lon="-0.34927">
			 <ele>73</ele>
			<time>2015-12-29T06:08:46Z</time>
			</trkpt>
		
			<trkpt lat="43.88238" lon="-0.34927">
			 <ele>73</ele>
			<time>2015-12-29T06:10:46Z</time>
			</trkpt>
		
			<trkpt lat="43.88182" lon="-0.34911">
			 <ele>74</ele>
			<time>2015-12-29T06:12:46Z</time>
			</trkpt>
		
			<trkpt lat="43.88161" lon="-0.34896">
			 <ele>76</ele>
			<time>2015-12-29T06:14:46Z</time>
			</trkpt>
		
			<trkpt lat="43.88161" lon="-0.34896">
			 <ele>76</ele>
			<time>2015-12-29T06:16:46Z</time>
			</trkpt>
		
			<trkpt lat="43.88133" lon="-0.34865">
			 <ele>79</ele>
			<time>2015-12-29T06:18:46Z</time>
			</trkpt>
		
			<trkpt lat="43.88079" lon="-0.34743">
			 <ele>82</ele>
			<time>2015-12-29T06:20:46Z</time>
			</trkpt>
		
			<trkpt lat="43.88014" lon="-0.3463">
			 <ele>80</ele>
			<time>2015-12-29T06:22:46Z</time>
			</trkpt>
		
			<trkpt lat="43.87968" lon="-0.34534">
			 <ele>83</ele>
			<time>2015-12-29T06:24:46Z</time>
			</trkpt>
		
			<trkpt lat="43.87957" lon="-0.34521">
			 <ele>83</ele>
			<time>2015-12-29T06:26:46Z</time>
			</trkpt>
		
			<trkpt lat="43.87932" lon="-0.34507">
			 <ele>84</ele>
			<time>2015-12-29T06:28:46Z</time>
			</trkpt>
		
			<trkpt lat="43.87857" lon="-0.34479">
			 <ele>84</ele>
			<time>2015-12-29T06:30:46Z</time>
			</trkpt>
		
			<trkpt lat="43.87685" lon="-0.34386">
			 <ele>83</ele>
			<time>2015-12-29T06:32:46Z</time>
			</trkpt>
		
			<trkpt lat="43.87528" lon="-0.34321">
			 <ele>84</ele>
			<time>2015-12-29T06:34:46Z</time>
			</trkpt>
		
			<trkpt lat="43.87469" lon="-0.34307">
			 <ele>83</ele>
			<time>2015-12-29T06:36:46Z</time>
			</trkpt>
		
			<trkpt lat="43.87418" lon="-0.34315">
			 <ele>82</ele>
			<time>2015-12-29T06:38:46Z</time>
			</trkpt>
		
			<trkpt lat="43.87396" lon="-0.34313">
			 <ele>82</ele>
			<time>2015-12-29T06:40:46Z</time>
			</trkpt>
		
			<trkpt lat="43.87331" lon="-0.34255">
			 <ele>81</ele>
			<time>2015-12-29T06:42:46Z</time>
			</trkpt>
		
			<trkpt lat="43.87264" lon="-0.34179">
			 <ele>79</ele>
			<time>2015-12-29T06:44:46Z</time>
			</trkpt>
		
			<trkpt lat="43.87224" lon="-0.34147">
			 <ele>77</ele>
			<time>2015-12-29T06:46:46Z</time>
			</trkpt>
		
			<trkpt lat="43.87168" lon="-0.34115">
			 <ele>77</ele>
			<time>2015-12-29T06:48:46Z</time>
			</trkpt>
		
			<trkpt lat="43.87113" lon="-0.34099">
			 <ele>77</ele>
			<time>2015-12-29T06:50:46Z</time>
			</trkpt>
		
			<trkpt lat="43.86821" lon="-0.3404">
			 <ele>73</ele>
			<time>2015-12-29T06:52:46Z</time>
			</trkpt>
		
			<trkpt lat="43.86784" lon="-0.34026">
			 <ele>73</ele>
			<time>2015-12-29T06:54:46Z</time>
			</trkpt>
		
			<trkpt lat="43.86761" lon="-0.34007">
			 <ele>72</ele>
			<time>2015-12-29T06:56:46Z</time>
			</trkpt>
		
			<trkpt lat="43.86701" lon="-0.33948">
			 <ele>73</ele>
			<time>2015-12-29T06:58:46Z</time>
			</trkpt>
		
			<trkpt lat="43.86685" lon="-0.33915">
			 <ele>74</ele>
			<time>2015-12-29T07:00:46Z</time>
			</trkpt>
		
			<trkpt lat="43.86683" lon="-0.33807">
			 <ele>75</ele>
			<time>2015-12-29T07:02:46Z</time>
			</trkpt>
		
			<trkpt lat="43.86689" lon="-0.33767">
			 <ele>75</ele>
			<time>2015-12-29T07:04:46Z</time>
			</trkpt>
		
			<trkpt lat="43.86706" lon="-0.33708">
			 <ele>77</ele>
			<time>2015-12-29T07:06:46Z</time>
			</trkpt>
		
			<trkpt lat="43.86702" lon="-0.33678">
			 <ele>77</ele>
			<time>2015-12-29T07:08:46Z</time>
			</trkpt>
		
			<trkpt lat="43.86671" lon="-0.3363">
			 <ele>76</ele>
			<time>2015-12-29T07:10:46Z</time>
			</trkpt>
		
			<trkpt lat="43.8653" lon="-0.33479">
			 <ele>74</ele>
			<time>2015-12-29T07:12:46Z</time>
			</trkpt>
		
			<trkpt lat="43.86501" lon="-0.33412">
			 <ele>76</ele>
			<time>2015-12-29T07:14:46Z</time>
			</trkpt>
		
			<trkpt lat="43.86467" lon="-0.33303">
			 <ele>76</ele>
			<time>2015-12-29T07:16:46Z</time>
			</trkpt>
		
			<trkpt lat="43.86435" lon="-0.33271">
			 <ele>75</ele>
			<time>2015-12-29T07:18:46Z</time>
			</trkpt>
		
			<trkpt lat="43.86435" lon="-0.33271">
			 <ele>75</ele>
			<time>2015-12-29T07:20:46Z</time>
			</trkpt>
		
			<trkpt lat="43.8643" lon="-0.33276">
			 <ele>75</ele>
			<time>2015-12-29T07:22:46Z</time>
			</trkpt>
		
			<trkpt lat="43.86305" lon="-0.33314">
			 <ele>71</ele>
			<time>2015-12-29T07:24:46Z</time>
			</trkpt>
		
			<trkpt lat="43.86257" lon="-0.33336">
			 <ele>70</ele>
			<time>2015-12-29T07:26:46Z</time>
			</trkpt>
		
			<trkpt lat="43.86241" lon="-0.33337">
			 <ele>70</ele>
			<time>2015-12-29T07:28:46Z</time>
			</trkpt>
		
			<trkpt lat="43.86226" lon="-0.33321">
			 <ele>70</ele>
			<time>2015-12-29T07:30:46Z</time>
			</trkpt>
		
			<trkpt lat="43.86185" lon="-0.33242">
			 <ele>71</ele>
			<time>2015-12-29T07:32:46Z</time>
			</trkpt>
		
			<trkpt lat="43.86165" lon="-0.33219">
			 <ele>73</ele>
			<time>2015-12-29T07:34:46Z</time>
			</trkpt>
		
			<trkpt lat="43.86109" lon="-0.3317">
			 <ele>75</ele>
			<time>2015-12-29T07:36:46Z</time>
			</trkpt>
		
			<trkpt lat="43.86088" lon="-0.33137">
			 <ele>77</ele>
			<time>2015-12-29T07:38:46Z</time>
			</trkpt>
		
			<trkpt lat="43.86088" lon="-0.33137">
			 <ele>77</ele>
			<time>2015-12-29T07:40:46Z</time>
			</trkpt>
		
			<trkpt lat="43.8607" lon="-0.33109">
			 <ele>78</ele>
			<time>2015-12-29T07:42:46Z</time>
			</trkpt>
		
			<trkpt lat="43.86048" lon="-0.33088">
			 <ele>79</ele>
			<time>2015-12-29T07:44:46Z</time>
			</trkpt>
		
			<trkpt lat="43.85923" lon="-0.32994">
			 <ele>73</ele>
			<time>2015-12-29T07:46:46Z</time>
			</trkpt>
		
			<trkpt lat="43.85904" lon="-0.32993">
			 <ele>72</ele>
			<time>2015-12-29T07:48:46Z</time>
			</trkpt>
		
			<trkpt lat="43.85766" lon="-0.33027">
			 <ele>68</ele>
			<time>2015-12-29T07:50:46Z</time>
			</trkpt>
		
			<trkpt lat="43.8573" lon="-0.33031">
			 <ele>67</ele>
			<time>2015-12-29T07:52:46Z</time>
			</trkpt>
		
			<trkpt lat="43.85709" lon="-0.33023">
			 <ele>67</ele>
			<time>2015-12-29T07:54:46Z</time>
			</trkpt>
		
			<trkpt lat="43.85636" lon="-0.32957">
			 <ele>69</ele>
			<time>2015-12-29T07:56:46Z</time>
			</trkpt>
		
			<trkpt lat="43.85636" lon="-0.32957">
			 <ele>69</ele>
			<time>2015-12-29T07:58:46Z</time>
			</trkpt>
		
			<trkpt lat="43.85627" lon="-0.32985">
			 <ele>69</ele>
			<time>2015-12-29T08:00:46Z</time>
			</trkpt>
		
			<trkpt lat="43.85618" lon="-0.33039">
			 <ele>69</ele>
			<time>2015-12-29T08:02:46Z</time>
			</trkpt>
		
			<trkpt lat="43.85618" lon="-0.33039">
			 <ele>69</ele>
			<time>2015-12-29T08:04:46Z</time>
			</trkpt>
		
			<trkpt lat="43.85576" lon="-0.33069">
			 <ele>70</ele>
			<time>2015-12-29T08:06:46Z</time>
			</trkpt>
		
			<trkpt lat="43.85576" lon="-0.33069">
			 <ele>70</ele>
			<time>2015-12-29T08:08:46Z</time>
			</trkpt>
		
			<trkpt lat="43.85511" lon="-0.33134">
			 <ele>71</ele>
			<time>2015-12-29T08:10:46Z</time>
			</trkpt>
		
			<trkpt lat="43.85511" lon="-0.33134">
			 <ele>71</ele>
			<time>2015-12-29T08:12:46Z</time>
			</trkpt>
		
			<trkpt lat="43.85576" lon="-0.33243">
			 <ele>72</ele>
			<time>2015-12-29T08:14:46Z</time>
			</trkpt>
		
			<trkpt lat="43.85576" lon="-0.33243">
			 <ele>72</ele>
			<time>2015-12-29T08:16:46Z</time>
			</trkpt>
		
			<trkpt lat="43.85717" lon="-0.33456">
			 <ele>72</ele>
			<time>2015-12-29T08:18:46Z</time>
			</trkpt>
		
			<trkpt lat="43.8573" lon="-0.33494">
			 <ele>72</ele>
			<time>2015-12-29T08:20:46Z</time>
			</trkpt>
		
			<trkpt lat="43.85749" lon="-0.33572">
			 <ele>73</ele>
			<time>2015-12-29T08:22:46Z</time>
			</trkpt>
		
			<trkpt lat="43.85749" lon="-0.33593">
			 <ele>73</ele>
			<time>2015-12-29T08:24:46Z</time>
			</trkpt>
		
			<trkpt lat="43.85746" lon="-0.33606">
			 <ele>73</ele>
			<time>2015-12-29T08:26:46Z</time>
			</trkpt>
		
			<trkpt lat="43.85636" lon="-0.3378">
			 <ele>76</ele>
			<time>2015-12-29T08:28:46Z</time>
			</trkpt>
		
			<trkpt lat="43.85618" lon="-0.33819">
			 <ele>77</ele>
			<time>2015-12-29T08:30:46Z</time>
			</trkpt>
		
			<trkpt lat="43.85542" lon="-0.34087">
			 <ele>86</ele>
			<time>2015-12-29T08:32:46Z</time>
			</trkpt>
		
			<trkpt lat="43.85504" lon="-0.34258">
			 <ele>89</ele>
			<time>2015-12-29T08:34:46Z</time>
			</trkpt>
		
			<trkpt lat="43.85448" lon="-0.34369">
			 <ele>95</ele>
			<time>2015-12-29T08:36:46Z</time>
			</trkpt>
		
			<trkpt lat="43.85448" lon="-0.34369">
			 <ele>95</ele>
			<time>2015-12-29T08:38:46Z</time>
			</trkpt>
		
			<trkpt lat="43.8542" lon="-0.34418">
			 <ele>99</ele>
			<time>2015-12-29T08:40:46Z</time>
			</trkpt>
		
			<trkpt lat="43.85442" lon="-0.3451">
			 <ele>95</ele>
			<time>2015-12-29T08:42:46Z</time>
			</trkpt>
		
			<trkpt lat="43.85428" lon="-0.34556">
			 <ele>95</ele>
			<time>2015-12-29T08:44:46Z</time>
			</trkpt>
		
			<trkpt lat="43.85363" lon="-0.34721">
			 <ele>94</ele>
			<time>2015-12-29T08:46:46Z</time>
			</trkpt>
		
			<trkpt lat="43.85357" lon="-0.34745">
			 <ele>93</ele>
			<time>2015-12-29T08:48:46Z</time>
			</trkpt>
		
			<trkpt lat="43.85357" lon="-0.34763">
			 <ele>93</ele>
			<time>2015-12-29T08:50:46Z</time>
			</trkpt>
		
			<trkpt lat="43.85375" lon="-0.34838">
			 <ele>90</ele>
			<time>2015-12-29T08:52:46Z</time>
			</trkpt>
		
			<trkpt lat="43.85377" lon="-0.34883">
			 <ele>91</ele>
			<time>2015-12-29T08:54:46Z</time>
			</trkpt>
		
			<trkpt lat="43.85344" lon="-0.35007">
			 <ele>91</ele>
			<time>2015-12-29T08:56:46Z</time>
			</trkpt>
		
			<trkpt lat="43.85335" lon="-0.35092">
			 <ele>93</ele>
			<time>2015-12-29T08:58:46Z</time>
			</trkpt>
		
			<trkpt lat="43.85336" lon="-0.35164">
			 <ele>95</ele>
			<time>2015-12-29T09:00:46Z</time>
			</trkpt>
		
			<trkpt lat="43.85355" lon="-0.35405">
			 <ele>91</ele>
			<time>2015-12-29T09:02:46Z</time>
			</trkpt>
		
			<trkpt lat="43.85379" lon="-0.35551">
			 <ele>91</ele>
			<time>2015-12-29T09:04:46Z</time>
			</trkpt>
		
			<trkpt lat="43.8539" lon="-0.35579">
			 <ele>91</ele>
			<time>2015-12-29T09:06:46Z</time>
			</trkpt>
		
			<trkpt lat="43.85413" lon="-0.35616">
			 <ele>90</ele>
			<time>2015-12-29T09:08:46Z</time>
			</trkpt>
		
			<trkpt lat="43.85427" lon="-0.35686">
			 <ele>89</ele>
			<time>2015-12-29T09:10:46Z</time>
			</trkpt>
		
			<trkpt lat="43.85427" lon="-0.35686">
			 <ele>89</ele>
			<time>2015-12-29T09:12:46Z</time>
			</trkpt>
		
			<trkpt lat="43.85444" lon="-0.35801">
			 <ele>90</ele>
			<time>2015-12-29T09:14:46Z</time>
			</trkpt>
		
			<trkpt lat="43.85451" lon="-0.35819">
			 <ele>90</ele>
			<time>2015-12-29T09:16:46Z</time>
			</trkpt>
		
			<trkpt lat="43.85505" lon="-0.359">
			 <ele>90</ele>
			<time>2015-12-29T09:18:46Z</time>
			</trkpt>
		
			<trkpt lat="43.85524" lon="-0.35923">
			 <ele>90</ele>
			<time>2015-12-29T09:20:46Z</time>
			</trkpt>
		
			<trkpt lat="43.85545" lon="-0.3594">
			 <ele>90</ele>
			<time>2015-12-29T09:22:46Z</time>
			</trkpt>
		
			<trkpt lat="43.85559" lon="-0.35945">
			 <ele>90</ele>
			<time>2015-12-29T09:24:46Z</time>
			</trkpt>
		
			<trkpt lat="43.85581" lon="-0.35943">
			 <ele>90</ele>
			<time>2015-12-29T09:26:46Z</time>
			</trkpt>
		
			<trkpt lat="43.85624" lon="-0.35929">
			 <ele>91</ele>
			<time>2015-12-29T09:28:46Z</time>
			</trkpt>
		
			<trkpt lat="43.85677" lon="-0.35886">
			 <ele>91</ele>
			<time>2015-12-29T09:30:46Z</time>
			</trkpt>
		
			<trkpt lat="43.857" lon="-0.35879">
			 <ele>91</ele>
			<time>2015-12-29T09:32:46Z</time>
			</trkpt>
		
			<trkpt lat="43.85732" lon="-0.35884">
			 <ele>91</ele>
			<time>2015-12-29T09:34:46Z</time>
			</trkpt>
		
			<trkpt lat="43.85768" lon="-0.35897">
			 <ele>91</ele>
			<time>2015-12-29T09:36:46Z</time>
			</trkpt>
		
			<trkpt lat="43.85785" lon="-0.35917">
			 <ele>91</ele>
			<time>2015-12-29T09:38:46Z</time>
			</trkpt>
		
			<trkpt lat="43.85787" lon="-0.35945">
			 <ele>91</ele>
			<time>2015-12-29T09:40:46Z</time>
			</trkpt>
		
			<trkpt lat="43.85782" lon="-0.36079">
			 <ele>92</ele>
			<time>2015-12-29T09:42:46Z</time>
			</trkpt>
		
			<trkpt lat="43.85763" lon="-0.36136">
			 <ele>93</ele>
			<time>2015-12-29T09:44:46Z</time>
			</trkpt>
		
			<trkpt lat="43.85762" lon="-0.36171">
			 <ele>93</ele>
			<time>2015-12-29T09:46:46Z</time>
			</trkpt>
		
			<trkpt lat="43.85777" lon="-0.36207">
			 <ele>94</ele>
			<time>2015-12-29T09:48:46Z</time>
			</trkpt>
		
			<trkpt lat="43.85795" lon="-0.36284">
			 <ele>98</ele>
			<time>2015-12-29T09:50:46Z</time>
			</trkpt>
		
			<trkpt lat="43.85809" lon="-0.36438">
			 <ele>99</ele>
			<time>2015-12-29T09:52:46Z</time>
			</trkpt>
		
			<trkpt lat="43.85817" lon="-0.3649">
			 <ele>97</ele>
			<time>2015-12-29T09:54:46Z</time>
			</trkpt>
		
			<trkpt lat="43.85833" lon="-0.36529">
			 <ele>98</ele>
			<time>2015-12-29T09:56:46Z</time>
			</trkpt>
		
			<trkpt lat="43.85921" lon="-0.36651">
			 <ele>102</ele>
			<time>2015-12-29T09:58:46Z</time>
			</trkpt>
		
			<trkpt lat="43.85943" lon="-0.36763">
			 <ele>102</ele>
			<time>2015-12-29T10:00:46Z</time>
			</trkpt>
		
			<trkpt lat="43.86011" lon="-0.37048">
			 <ele>100</ele>
			<time>2015-12-29T10:02:46Z</time>
			</trkpt>
		
			<trkpt lat="43.8606" lon="-0.37327">
			 <ele>96</ele>
			<time>2015-12-29T10:04:46Z</time>
			</trkpt>
		
			<trkpt lat="43.86066" lon="-0.37419">
			 <ele>92</ele>
			<time>2015-12-29T10:06:46Z</time>
			</trkpt>
		
			<trkpt lat="43.86067" lon="-0.37615">
			 <ele>87</ele>
			<time>2015-12-29T10:08:46Z</time>
			</trkpt>
		
			<trkpt lat="43.86071" lon="-0.37667">
			 <ele>86</ele>
			<time>2015-12-29T10:10:46Z</time>
			</trkpt>
		
			<trkpt lat="43.86077" lon="-0.37693">
			 <ele>84</ele>
			<time>2015-12-29T10:12:46Z</time>
			</trkpt>
		
			<trkpt lat="43.86084" lon="-0.37711">
			 <ele>83</ele>
			<time>2015-12-29T10:14:46Z</time>
			</trkpt>
		
			<trkpt lat="43.86163" lon="-0.37827">
			 <ele>84</ele>
			<time>2015-12-29T10:16:46Z</time>
			</trkpt>
		
			<trkpt lat="43.86205" lon="-0.37955">
			 <ele>87</ele>
			<time>2015-12-29T10:18:46Z</time>
			</trkpt>
		
			<trkpt lat="43.86257" lon="-0.38058">
			 <ele>89</ele>
			<time>2015-12-29T10:20:46Z</time>
			</trkpt>
		
			<trkpt lat="43.86262" lon="-0.38096">
			 <ele>87</ele>
			<time>2015-12-29T10:22:46Z</time>
			</trkpt>
		
			<trkpt lat="43.86261" lon="-0.38316">
			 <ele>85</ele>
			<time>2015-12-29T10:24:46Z</time>
			</trkpt>
		
			<trkpt lat="43.86267" lon="-0.38342">
			 <ele>84</ele>
			<time>2015-12-29T10:26:46Z</time>
			</trkpt>
		
			<trkpt lat="43.86306" lon="-0.38447">
			 <ele>81</ele>
			<time>2015-12-29T10:28:46Z</time>
			</trkpt>
		
			<trkpt lat="43.86376" lon="-0.38567">
			 <ele>82</ele>
			<time>2015-12-29T10:30:46Z</time>
			</trkpt>
		
			<trkpt lat="43.86433" lon="-0.38708">
			 <ele>81</ele>
			<time>2015-12-29T10:32:46Z</time>
			</trkpt>
		
			<trkpt lat="43.86462" lon="-0.3877">
			 <ele>80</ele>
			<time>2015-12-29T10:34:46Z</time>
			</trkpt>
		
			<trkpt lat="43.86496" lon="-0.38811">
			 <ele>78</ele>
			<time>2015-12-29T10:36:46Z</time>
			</trkpt>
		
			<trkpt lat="43.86593" lon="-0.38909">
			 <ele>78</ele>
			<time>2015-12-29T10:38:46Z</time>
			</trkpt>
		
			<trkpt lat="43.86638" lon="-0.38966">
			 <ele>77</ele>
			<time>2015-12-29T10:40:46Z</time>
			</trkpt>
		
			<trkpt lat="43.86666" lon="-0.39008">
			 <ele>75</ele>
			<time>2015-12-29T10:42:46Z</time>
			</trkpt>
		
			<trkpt lat="43.86693" lon="-0.3908">
			 <ele>73</ele>
			<time>2015-12-29T10:44:46Z</time>
			</trkpt>
		
			<trkpt lat="43.86693" lon="-0.3908">
			 <ele>73</ele>
			<time>2015-12-29T10:46:46Z</time>
			</trkpt>
		
			<trkpt lat="43.86717" lon="-0.39165">
			 <ele>72</ele>
			<time>2015-12-29T10:48:46Z</time>
			</trkpt>
		
			<trkpt lat="43.86699" lon="-0.3926">
			 <ele>73</ele>
			<time>2015-12-29T10:50:46Z</time>
			</trkpt>
		
			<trkpt lat="43.86683" lon="-0.39296">
			 <ele>73</ele>
			<time>2015-12-29T10:52:46Z</time>
			</trkpt>
		
			<trkpt lat="43.866" lon="-0.39413">
			 <ele>75</ele>
			<time>2015-12-29T10:54:46Z</time>
			</trkpt>
		
			<trkpt lat="43.86571" lon="-0.39466">
			 <ele>78</ele>
			<time>2015-12-29T10:56:46Z</time>
			</trkpt>
		
			<trkpt lat="43.86551" lon="-0.39549">
			 <ele>82</ele>
			<time>2015-12-29T10:58:46Z</time>
			</trkpt>
		
			<trkpt lat="43.86522" lon="-0.39628">
			 <ele>84</ele>
			<time>2015-12-29T11:00:46Z</time>
			</trkpt>
		
			<trkpt lat="43.86487" lon="-0.39744">
			 <ele>90</ele>
			<time>2015-12-29T11:02:46Z</time>
			</trkpt>
		
			<trkpt lat="43.86488" lon="-0.398">
			 <ele>91</ele>
			<time>2015-12-29T11:04:46Z</time>
			</trkpt>
		
			<trkpt lat="43.86488" lon="-0.398">
			 <ele>91</ele>
			<time>2015-12-29T11:06:46Z</time>
			</trkpt>
		
			<trkpt lat="43.86497" lon="-0.39933">
			 <ele>90</ele>
			<time>2015-12-29T11:08:46Z</time>
			</trkpt>
		
			<trkpt lat="43.86506" lon="-0.39988">
			 <ele>90</ele>
			<time>2015-12-29T11:10:46Z</time>
			</trkpt>
		
			<trkpt lat="43.86521" lon="-0.40032">
			 <ele>89</ele>
			<time>2015-12-29T11:12:46Z</time>
			</trkpt>
		
			<trkpt lat="43.86573" lon="-0.40128">
			 <ele>85</ele>
			<time>2015-12-29T11:14:46Z</time>
			</trkpt>
		
			<trkpt lat="43.86598" lon="-0.40165">
			 <ele>85</ele>
			<time>2015-12-29T11:16:46Z</time>
			</trkpt>
		
			<trkpt lat="43.86627" lon="-0.40198">
			 <ele>82</ele>
			<time>2015-12-29T11:18:46Z</time>
			</trkpt>
		
			<trkpt lat="43.86642" lon="-0.40209">
			 <ele>81</ele>
			<time>2015-12-29T11:20:46Z</time>
			</trkpt>
		
			<trkpt lat="43.86692" lon="-0.40222">
			 <ele>77</ele>
			<time>2015-12-29T11:22:46Z</time>
			</trkpt>
		
			<trkpt lat="43.86714" lon="-0.4024">
			 <ele>76</ele>
			<time>2015-12-29T11:24:46Z</time>
			</trkpt>
		
			<trkpt lat="43.86742" lon="-0.40307">
			 <ele>75</ele>
			<time>2015-12-29T11:26:46Z</time>
			</trkpt>
		
			<trkpt lat="43.86757" lon="-0.40355">
			 <ele>77</ele>
			<time>2015-12-29T11:28:46Z</time>
			</trkpt>
		
			<trkpt lat="43.86757" lon="-0.40355">
			 <ele>77</ele>
			<time>2015-12-29T11:30:46Z</time>
			</trkpt>
		
			<trkpt lat="43.86777" lon="-0.40429">
			 <ele>79</ele>
			<time>2015-12-29T11:32:46Z</time>
			</trkpt>
		
			<trkpt lat="43.86777" lon="-0.40429">
			 <ele>79</ele>
			<time>2015-12-29T11:34:46Z</time>
			</trkpt>
		
			<trkpt lat="43.86797" lon="-0.40484">
			 <ele>79</ele>
			<time>2015-12-29T11:36:46Z</time>
			</trkpt>
		
			<trkpt lat="43.86803" lon="-0.40512">
			 <ele>79</ele>
			<time>2015-12-29T11:38:46Z</time>
			</trkpt>
		
			<trkpt lat="43.86796" lon="-0.40561">
			 <ele>80</ele>
			<time>2015-12-29T11:40:46Z</time>
			</trkpt>
		
			<trkpt lat="43.86783" lon="-0.40581">
			 <ele>81</ele>
			<time>2015-12-29T11:42:46Z</time>
			</trkpt>
		
			<trkpt lat="43.86783" lon="-0.40581">
			 <ele>81</ele>
			<time>2015-12-29T11:44:46Z</time>
			</trkpt>
		
			<trkpt lat="43.86742" lon="-0.40629">
			 <ele>82</ele>
			<time>2015-12-29T11:46:46Z</time>
			</trkpt>
		
			<trkpt lat="43.86742" lon="-0.40629">
			 <ele>82</ele>
			<time>2015-12-29T11:48:46Z</time>
			</trkpt>
		
			<trkpt lat="43.86806" lon="-0.4077">
			 <ele>85</ele>
			<time>2015-12-29T11:50:46Z</time>
			</trkpt>
		
			<trkpt lat="43.86839" lon="-0.40857">
			 <ele>86</ele>
			<time>2015-12-29T11:52:46Z</time>
			</trkpt>
		
			<trkpt lat="43.86839" lon="-0.40857">
			 <ele>86</ele>
			<time>2015-12-29T11:54:46Z</time>
			</trkpt>
		
			<trkpt lat="43.86897" lon="-0.41011">
			 <ele>89</ele>
			<time>2015-12-29T11:56:46Z</time>
			</trkpt>
		
			<trkpt lat="43.86945" lon="-0.41083">
			 <ele>89</ele>
			<time>2015-12-29T11:58:46Z</time>
			</trkpt>
		
			<trkpt lat="43.8696" lon="-0.41115">
			 <ele>90</ele>
			<time>2015-12-29T12:00:46Z</time>
			</trkpt>
		
			<trkpt lat="43.8699" lon="-0.41242">
			 <ele>93</ele>
			<time>2015-12-29T12:02:46Z</time>
			</trkpt>
		
			<trkpt lat="43.8699" lon="-0.41285">
			 <ele>93</ele>
			<time>2015-12-29T12:04:46Z</time>
			</trkpt>
		
			<trkpt lat="43.86981" lon="-0.4131">
			 <ele>92</ele>
			<time>2015-12-29T12:06:46Z</time>
			</trkpt>
		
			<trkpt lat="43.86963" lon="-0.41342">
			 <ele>91</ele>
			<time>2015-12-29T12:08:46Z</time>
			</trkpt>
		
			<trkpt lat="43.86959" lon="-0.41358">
			 <ele>91</ele>
			<time>2015-12-29T12:10:46Z</time>
			</trkpt>
		
			<trkpt lat="43.86959" lon="-0.41414">
			 <ele>92</ele>
			<time>2015-12-29T12:12:46Z</time>
			</trkpt>
		
			<trkpt lat="43.86983" lon="-0.41562">
			 <ele>92</ele>
			<time>2015-12-29T12:14:46Z</time>
			</trkpt>
		
			<trkpt lat="43.87085" lon="-0.41924">
			 <ele>86</ele>
			<time>2015-12-29T12:16:46Z</time>
			</trkpt>
		
			<trkpt lat="43.87087" lon="-0.41971">
			 <ele>87</ele>
			<time>2015-12-29T12:18:46Z</time>
			</trkpt>
		
			<trkpt lat="43.87082" lon="-0.4201">
			 <ele>87</ele>
			<time>2015-12-29T12:20:46Z</time>
			</trkpt>
		
			<trkpt lat="43.87082" lon="-0.42093">
			 <ele>86</ele>
			<time>2015-12-29T12:22:46Z</time>
			</trkpt>
		
			<trkpt lat="43.87113" lon="-0.42221">
			 <ele>86</ele>
			<time>2015-12-29T12:24:46Z</time>
			</trkpt>
		
			<trkpt lat="43.87144" lon="-0.42398">
			 <ele>82</ele>
			<time>2015-12-29T12:26:46Z</time>
			</trkpt>
		
			<trkpt lat="43.87154" lon="-0.42483">
			 <ele>81</ele>
			<time>2015-12-29T12:28:46Z</time>
			</trkpt>
		
			<trkpt lat="43.87141" lon="-0.42541">
			 <ele>79</ele>
			<time>2015-12-29T12:30:46Z</time>
			</trkpt>
		
			<trkpt lat="43.87142" lon="-0.42573">
			 <ele>79</ele>
			<time>2015-12-29T12:32:46Z</time>
			</trkpt>
		
			<trkpt lat="43.87154" lon="-0.42664">
			 <ele>80</ele>
			<time>2015-12-29T12:34:46Z</time>
			</trkpt>
		
			<trkpt lat="43.87192" lon="-0.42843">
			 <ele>81</ele>
			<time>2015-12-29T12:36:46Z</time>
			</trkpt>
		
			<trkpt lat="43.87195" lon="-0.42875">
			 <ele>81</ele>
			<time>2015-12-29T12:38:46Z</time>
			</trkpt>
		
			<trkpt lat="43.87196" lon="-0.4291">
			 <ele>82</ele>
			<time>2015-12-29T12:40:46Z</time>
			</trkpt>
		
			<trkpt lat="43.87176" lon="-0.42962">
			 <ele>82</ele>
			<time>2015-12-29T12:42:46Z</time>
			</trkpt>
		
			<trkpt lat="43.87171" lon="-0.43">
			 <ele>82</ele>
			<time>2015-12-29T12:44:46Z</time>
			</trkpt>
		
			<trkpt lat="43.87171" lon="-0.43">
			 <ele>82</ele>
			<time>2015-12-29T12:46:46Z</time>
			</trkpt>
		
			<trkpt lat="43.8725" lon="-0.43189">
			 <ele>80</ele>
			<time>2015-12-29T12:48:46Z</time>
			</trkpt>
		
			<trkpt lat="43.87374" lon="-0.43464">
			 <ele>79</ele>
			<time>2015-12-29T12:50:46Z</time>
			</trkpt>
		
			<trkpt lat="43.87374" lon="-0.43464">
			 <ele>79</ele>
			<time>2015-12-29T12:52:46Z</time>
			</trkpt>
		
			<trkpt lat="43.87394" lon="-0.4351">
			 <ele>78</ele>
			<time>2015-12-29T12:54:46Z</time>
			</trkpt>
		
			<trkpt lat="43.87394" lon="-0.4351">
			 <ele>78</ele>
			<time>2015-12-29T12:56:46Z</time>
			</trkpt>
		
			<trkpt lat="43.87352" lon="-0.43511">
			 <ele>81</ele>
			<time>2015-12-29T12:58:46Z</time>
			</trkpt>
		
			<trkpt lat="43.87352" lon="-0.43511">
			 <ele>81</ele>
			<time>2015-12-29T13:00:46Z</time>
			</trkpt>
		
			<trkpt lat="43.87164" lon="-0.43507">
			 <ele>84</ele>
			<time>2015-12-29T13:02:46Z</time>
			</trkpt>
		
			<trkpt lat="43.87119" lon="-0.43504">
			 <ele>82</ele>
			<time>2015-12-29T13:04:46Z</time>
			</trkpt>
		
			<trkpt lat="43.8706" lon="-0.43492">
			 <ele>79</ele>
			<time>2015-12-29T13:06:46Z</time>
			</trkpt>
		
			<trkpt lat="43.87035" lon="-0.43495">
			 <ele>77</ele>
			<time>2015-12-29T13:08:46Z</time>
			</trkpt>
		
			<trkpt lat="43.86999" lon="-0.43523">
			 <ele>74</ele>
			<time>2015-12-29T13:10:46Z</time>
			</trkpt>
		
			<trkpt lat="43.86877" lon="-0.43658">
			 <ele>77</ele>
			<time>2015-12-29T13:12:46Z</time>
			</trkpt>
		
			<trkpt lat="43.86773" lon="-0.43751">
			 <ele>84</ele>
			<time>2015-12-29T13:14:46Z</time>
			</trkpt>
		
			<trkpt lat="43.8673" lon="-0.43784">
			 <ele>86</ele>
			<time>2015-12-29T13:16:46Z</time>
			</trkpt>
		
			<trkpt lat="43.8668" lon="-0.43811">
			 <ele>87</ele>
			<time>2015-12-29T13:18:46Z</time>
			</trkpt>
		
			<trkpt lat="43.86615" lon="-0.43831">
			 <ele>88</ele>
			<time>2015-12-29T13:20:46Z</time>
			</trkpt>
		
			<trkpt lat="43.86595" lon="-0.4385">
			 <ele>88</ele>
			<time>2015-12-29T13:22:46Z</time>
			</trkpt>
		
			<trkpt lat="43.86581" lon="-0.4388">
			 <ele>89</ele>
			<time>2015-12-29T13:24:46Z</time>
			</trkpt>
		
			<trkpt lat="43.86551" lon="-0.43982">
			 <ele>91</ele>
			<time>2015-12-29T13:26:46Z</time>
			</trkpt>
		
			<trkpt lat="43.86547" lon="-0.44029">
			 <ele>92</ele>
			<time>2015-12-29T13:28:46Z</time>
			</trkpt>
		
			<trkpt lat="43.86577" lon="-0.44223">
			 <ele>91</ele>
			<time>2015-12-29T13:30:46Z</time>
			</trkpt>
		
			<trkpt lat="43.8657" lon="-0.44294">
			 <ele>91</ele>
			<time>2015-12-29T13:32:46Z</time>
			</trkpt>
		
			<trkpt lat="43.86572" lon="-0.44337">
			 <ele>91</ele>
			<time>2015-12-29T13:34:46Z</time>
			</trkpt>
		
			<trkpt lat="43.8661" lon="-0.4447">
			 <ele>92</ele>
			<time>2015-12-29T13:36:46Z</time>
			</trkpt>
		
			<trkpt lat="43.8661" lon="-0.44512">
			 <ele>93</ele>
			<time>2015-12-29T13:38:46Z</time>
			</trkpt>
		
			<trkpt lat="43.8661" lon="-0.44512">
			 <ele>93</ele>
			<time>2015-12-29T13:40:46Z</time>
			</trkpt>
		
			<trkpt lat="43.86598" lon="-0.44536">
			 <ele>93</ele>
			<time>2015-12-29T13:42:46Z</time>
			</trkpt>
		
			<trkpt lat="43.86558" lon="-0.44559">
			 <ele>94</ele>
			<time>2015-12-29T13:44:46Z</time>
			</trkpt>
		
			<trkpt lat="43.86558" lon="-0.44559">
			 <ele>94</ele>
			<time>2015-12-29T13:46:46Z</time>
			</trkpt>
		
			<trkpt lat="43.86652" lon="-0.4482">
			 <ele>91</ele>
			<time>2015-12-29T13:48:46Z</time>
			</trkpt>
		
			<trkpt lat="43.86937" lon="-0.45537">
			 <ele>93</ele>
			<time>2015-12-29T13:50:46Z</time>
			</trkpt>
		
			<trkpt lat="43.86937" lon="-0.45537">
			 <ele>93</ele>
			<time>2015-12-29T13:52:46Z</time>
			</trkpt>
		
			<trkpt lat="43.87096" lon="-0.45944">
			 <ele>94</ele>
			<time>2015-12-29T13:54:46Z</time>
			</trkpt>
		
			<trkpt lat="43.87179" lon="-0.46133">
			 <ele>93</ele>
			<time>2015-12-29T13:56:46Z</time>
			</trkpt>
		
			<trkpt lat="43.87231" lon="-0.46262">
			 <ele>91</ele>
			<time>2015-12-29T13:58:46Z</time>
			</trkpt>
		
			<trkpt lat="43.87233" lon="-0.46279">
			 <ele>90</ele>
			<time>2015-12-29T14:00:46Z</time>
			</trkpt>
		
			<trkpt lat="43.87269" lon="-0.46377">
			 <ele>90</ele>
			<time>2015-12-29T14:02:46Z</time>
			</trkpt>
		
			<trkpt lat="43.87427" lon="-0.46779">
			 <ele>92</ele>
			<time>2015-12-29T14:04:46Z</time>
			</trkpt>
		
			<trkpt lat="43.87471" lon="-0.46869">
			 <ele>83</ele>
			<time>2015-12-29T14:06:46Z</time>
			</trkpt>
		
			<trkpt lat="43.87486" lon="-0.46871">
			 <ele>82</ele>
			<time>2015-12-29T14:08:46Z</time>
			</trkpt>
		
			<trkpt lat="43.87502" lon="-0.46888">
			 <ele>82</ele>
			<time>2015-12-29T14:10:46Z</time>
			</trkpt>
		
			<trkpt lat="43.87507" lon="-0.46904">
			 <ele>82</ele>
			<time>2015-12-29T14:12:46Z</time>
			</trkpt>
		
			<trkpt lat="43.87502" lon="-0.46934">
			 <ele>83</ele>
			<time>2015-12-29T14:14:46Z</time>
			</trkpt>
		
			<trkpt lat="43.87503" lon="-0.46951">
			 <ele>83</ele>
			<time>2015-12-29T14:16:46Z</time>
			</trkpt>
		
			<trkpt lat="43.87517" lon="-0.47004">
			 <ele>84</ele>
			<time>2015-12-29T14:18:46Z</time>
			</trkpt>
		
			<trkpt lat="43.87573" lon="-0.47136">
			 <ele>83</ele>
			<time>2015-12-29T14:20:46Z</time>
			</trkpt>
		
			<trkpt lat="43.88113" lon="-0.48504">
			 <ele>81</ele>
			<time>2015-12-29T14:22:46Z</time>
			</trkpt>
		
			<trkpt lat="43.88175" lon="-0.48634">
			 <ele>74</ele>
			<time>2015-12-29T14:24:46Z</time>
			</trkpt>
		
			<trkpt lat="43.88196" lon="-0.4867">
			 <ele>74</ele>
			<time>2015-12-29T14:26:46Z</time>
			</trkpt>
		
			<trkpt lat="43.88212" lon="-0.4867">
			 <ele>73</ele>
			<time>2015-12-29T14:28:46Z</time>
			</trkpt>
		
			<trkpt lat="43.88216" lon="-0.48678">
			 <ele>73</ele>
			<time>2015-12-29T14:30:46Z</time>
			</trkpt>
		
			<trkpt lat="43.88218" lon="-0.48692">
			 <ele>74</ele>
			<time>2015-12-29T14:32:46Z</time>
			</trkpt>
		
			<trkpt lat="43.88212" lon="-0.48706">
			 <ele>74</ele>
			<time>2015-12-29T14:34:46Z</time>
			</trkpt>
		
			<trkpt lat="43.88212" lon="-0.48718">
			 <ele>74</ele>
			<time>2015-12-29T14:36:46Z</time>
			</trkpt>
		
			<trkpt lat="43.88221" lon="-0.48748">
			 <ele>74</ele>
			<time>2015-12-29T14:38:46Z</time>
			</trkpt>
		
			<trkpt lat="43.88277" lon="-0.4888">
			 <ele>72</ele>
			<time>2015-12-29T14:40:46Z</time>
			</trkpt>
		
			<trkpt lat="43.88365" lon="-0.4906">
			 <ele>67</ele>
			<time>2015-12-29T14:42:46Z</time>
			</trkpt>
		
			<trkpt lat="43.88365" lon="-0.4906">
			 <ele>67</ele>
			<time>2015-12-29T14:44:46Z</time>
			</trkpt>
		
			<trkpt lat="43.88563" lon="-0.4947">
			 <ele>61</ele>
			<time>2015-12-29T14:46:46Z</time>
			</trkpt>
		
			<trkpt lat="43.88613" lon="-0.49634">
			 <ele>60</ele>
			<time>2015-12-29T14:48:46Z</time>
			</trkpt>
		
			<trkpt lat="43.88681" lon="-0.49887">
			 <ele>58</ele>
			<time>2015-12-29T14:50:46Z</time>
			</trkpt>
		
			<trkpt lat="43.88681" lon="-0.49887">
			 <ele>58</ele>
			<time>2015-12-29T14:52:46Z</time>
			</trkpt>
		
			<trkpt lat="43.88696" lon="-0.49943">
			 <ele>57</ele>
			<time>2015-12-29T14:54:46Z</time>
			</trkpt>
		
			<trkpt lat="43.88713" lon="-0.49977">
			 <ele>55</ele>
			<time>2015-12-29T14:56:46Z</time>
			</trkpt>
		
			<trkpt lat="43.88713" lon="-0.49977">
			 <ele>55</ele>
			<time>2015-12-29T14:58:46Z</time>
			</trkpt>
		
			<trkpt lat="43.88722" lon="-0.49985">
			 <ele>55</ele>
			<time>2015-12-29T15:00:46Z</time>
			</trkpt>
		
			<trkpt lat="43.88724" lon="-0.49996">
			 <ele>55</ele>
			<time>2015-12-29T15:02:46Z</time>
			</trkpt>
		
			<trkpt lat="43.88718" lon="-0.50006">
			 <ele>55</ele>
			<time>2015-12-29T15:04:46Z</time>
			</trkpt>
		
			<trkpt lat="43.88709" lon="-0.50119">
			 <ele>54</ele>
			<time>2015-12-29T15:06:46Z</time>
			</trkpt>
		
			<trkpt lat="43.88718" lon="-0.50176">
			 <ele>53</ele>
			<time>2015-12-29T15:08:46Z</time>
			</trkpt>
		
			<trkpt lat="43.88731" lon="-0.5039">
			 <ele>49</ele>
			<time>2015-12-29T15:10:46Z</time>
			</trkpt>
		
			<trkpt lat="43.88738" lon="-0.50411">
			 <ele>49</ele>
			<time>2015-12-29T15:12:46Z</time>
			</trkpt>
		
			<trkpt lat="43.88749" lon="-0.50421">
			 <ele>49</ele>
			<time>2015-12-29T15:14:46Z</time>
			</trkpt>
		
			<trkpt lat="43.88748" lon="-0.50441">
			 <ele>48</ele>
			<time>2015-12-29T15:16:46Z</time>
			</trkpt>
		
			<trkpt lat="43.88759" lon="-0.50472">
			 <ele>47</ele>
			<time>2015-12-29T15:18:46Z</time>
			</trkpt>
		
			<trkpt lat="43.88813" lon="-0.50586">
			 <ele>42</ele>
			<time>2015-12-29T15:20:46Z</time>
			</trkpt>
		
			<trkpt lat="43.88824" lon="-0.50617">
			 <ele>41</ele>
			<time>2015-12-29T15:22:46Z</time>
			</trkpt>
		
			<trkpt lat="43.88823" lon="-0.50646">
			 <ele>40</ele>
			<time>2015-12-29T15:24:46Z</time>
			</trkpt>
		
			<trkpt lat="43.88803" lon="-0.50755">
			 <ele>41</ele>
			<time>2015-12-29T15:26:46Z</time>
			</trkpt>
		
			<trkpt lat="43.88803" lon="-0.50755">
			 <ele>41</ele>
			<time>2015-12-29T15:28:46Z</time>
			</trkpt>
		
			<trkpt lat="43.88786" lon="-0.50846">
			 <ele>43</ele>
			<time>2015-12-29T15:30:46Z</time>
			</trkpt>
		
			<trkpt lat="43.88679" lon="-0.51543">
			 <ele>47</ele>
			<time>2015-12-29T15:32:46Z</time>
			</trkpt>
		
			<trkpt lat="43.88679" lon="-0.51543">
			 <ele>47</ele>
			<time>2015-12-29T15:34:46Z</time>
			</trkpt>
		
			<trkpt lat="43.88672" lon="-0.51591">
			 <ele>46</ele>
			<time>2015-12-29T15:36:46Z</time>
			</trkpt>
		
			<trkpt lat="43.88678" lon="-0.51616">
			 <ele>46</ele>
			<time>2015-12-29T15:38:46Z</time>
			</trkpt>
		
			<trkpt lat="43.88678" lon="-0.51616">
			 <ele>46</ele>
			<time>2015-12-29T15:40:46Z</time>
			</trkpt>
		
			<trkpt lat="43.887" lon="-0.51623">
			 <ele>46</ele>
			<time>2015-12-29T15:42:46Z</time>
			</trkpt>
		
			<trkpt lat="43.88829" lon="-0.51589">
			 <ele>47</ele>
			<time>2015-12-29T15:44:46Z</time>
			</trkpt>
		
			<trkpt lat="43.89319" lon="-0.51392">
			 <ele>42</ele>
			<time>2015-12-29T15:46:46Z</time>
			</trkpt>
		
				</trkseg>
			   </trk>
			 </gpx>
	